Time,TemperatureF,DewpointF,PressureIn,WindDirection,WindDirectionDegrees,WindSpeedMPH,WindSpeedGustMPH,Humidity,HourlyPrecipIn,Conditions,Clouds,dailyrainin,SoftwareType,DateUTC
2013-06-30 07:28:00,71.6,39.4,30.06,SSE,158,0.0,0.0,31,0.00,,,0.00,VWS V14.00,2013-06-30 14:28:00,
2013-06-30 07:29:00,71.6,39.4,30.06,East,90,0.9,0.9,31,0.00,,,0.00,VWS V14.00,2013-06-30 14:29:00,
2013-06-30 07:30:00,70.0,42.5,30.09,East,90,0.0,0.9,37,0.00,,,0.00,VWS V14.00,2013-06-30 14:30:00,
2013-06-30 07:31:00,70.0,42.5,30.09,East,90,0.0,0.0,37,0.00,,,0.00,VWS V14.00,2013-06-30 14:31:00,
2013-06-30 07:32:00,70.0,42.5,30.09,East,90,0.0,0.0,37,0.00,,,0.00,VWS V14.00,2013-06-30 14:32:00,
2013-06-30 07:33:00,70.2,42.7,30.09,ESE,112,0.0,0.0,37,0.00,,,0.00,VWS V14.00,2013-06-30 14:33:00,
2013-06-30 07:34:00,70.2,42.7,30.09,ESE,112,0.0,0.0,37,0.00,,,0.00,VWS V14.00,2013-06-30 14:34:00,
2013-06-30 07:35:00,70.2,42.7,30.09,East,90,0.0,0.0,37,0.00,,,0.00,VWS V14.00,2013-06-30 14:35:00,
2013-06-30 07:36:00,70.2,43.4,30.09,East,90,0.0,0.0,38,0.00,,,0.00,VWS V14.00,2013-06-30 14:36:00,
2013-06-30 07:37:00,70.0,43.2,30.09,East,90,0.0,0.0,38,0.00,,,0.00,VWS V14.00,2013-06-30 14:37:00,
2013-06-30 07:38:00,70.0,43.2,30.09,East,90,0.0,0.0,38,0.00,,,0.00,VWS V14.00,2013-06-30 14:38:00,
2013-06-30 07:39:00,70.0,43.2,30.09,East,90,0.0,0.0,38,0.00,,,0.00,VWS V14.00,2013-06-30 14:39:00,
2013-06-30 07:40:00,70.0,43.2,30.09,East,90,0.0,0.0,38,0.00,,,0.00,VWS V14.00,2013-06-30 14:40:00,
2013-06-30 07:41:00,70.0,43.9,30.09,East,90,0.0,0.0,39,0.00,,,0.00,VWS V14.00,2013-06-30 14:41:00,
2013-06-30 07:42:00,70.0,43.9,30.09,East,90,0.0,0.0,39,0.00,,,0.00,VWS V14.00,2013-06-30 14:42:00,
2013-06-30 07:43:00,70.2,44.1,30.09,ESE,112,0.0,0.0,39,0.00,,,0.00,VWS V14.00,2013-06-30 14:43:00,
2013-06-30 07:44:00,70.3,44.2,30.09,ESE,112,1.3,1.3,39,0.00,,,0.00,VWS V14.00,2013-06-30 14:44:00,
2013-06-30 07:45:00,70.3,44.2,30.09,ESE,112,2.5,2.5,39,0.00,,,0.00,VWS V14.00,2013-06-30 14:45:00,
2013-06-30 07:46:00,70.3,43.5,30.09,East,90,2.0,2.5,38,0.00,,,0.00,VWS V14.00,2013-06-30 14:46:00,
2013-06-30 07:47:00,70.3,43.5,30.09,East,90,0.0,2.0,38,0.00,,,0.00,VWS V14.00,2013-06-30 14:47:00,
2013-06-30 07:48:00,70.5,43.7,30.09,ESE,112,0.0,0.0,38,0.00,,,0.00,VWS V14.00,2013-06-30 14:48:00,
2013-06-30 07:49:00,70.5,43.7,30.09,ESE,112,1.6,1.6,38,0.00,,,0.00,VWS V14.00,2013-06-30 14:49:00,
2013-06-30 07:50:00,70.9,44.0,30.09,ESE,112,2.5,2.5,38,0.00,,,0.00,VWS V14.00,2013-06-30 14:50:00,
2013-06-30 07:51:00,70.9,44.0,30.09,SSE,158,2.7,2.7,38,0.00,,,0.00,VWS V14.00,2013-06-30 14:51:00,
2013-06-30 07:52:00,71.2,43.7,30.09,ESE,112,2.5,2.7,37,0.00,,,0.00,VWS V14.00,2013-06-30 14:52:00,
2013-06-30 07:53:00,71.6,44.0,30.09,East,90,2.0,2.5,37,0.00,,,0.00,VWS V14.00,2013-06-30 14:53:00,
2013-06-30 07:54:00,71.6,44.0,30.09,ESE,112,1.3,2.0,37,0.00,,,0.00,VWS V14.00,2013-06-30 14:54:00,
2013-06-30 07:55:00,72.0,45.0,30.09,ESE,112,1.6,1.6,38,0.00,,,0.00,VWS V14.00,2013-06-30 14:55:00,
2013-06-30 07:56:00,72.0,45.0,30.09,East,90,2.0,2.0,38,0.00,,,0.00,VWS V14.00,2013-06-30 14:56:00,
2013-06-30 07:57:00,72.0,45.0,30.09,East,90,2.0,2.0,38,0.00,,,0.00,VWS V14.00,2013-06-30 14:57:00,
2013-06-30 07:58:00,72.0,45.0,30.09,East,90,0.9,2.0,38,0.00,,,0.00,VWS V14.00,2013-06-30 14:58:00,
2013-06-30 07:59:00,73.0,46.6,30.09,East,90,0.0,0.9,39,0.00,,,0.00,VWS V14.00,2013-06-30 14:59:00,
2013-06-30 08:00:00,73.2,46.8,30.09,ESE,112,0.0,0.0,39,0.00,,,0.00,VWS V14.00,2013-06-30 15:00:00,
2013-06-30 08:01:00,73.2,46.8,30.09,East,90,0.0,0.0,39,0.00,,,0.00,VWS V14.00,2013-06-30 15:01:00,
2013-06-30 08:02:00,73.4,47.0,30.09,East,90,0.0,0.0,39,0.00,,,0.00,VWS V14.00,2013-06-30 15:02:00,
2013-06-30 08:03:00,73.4,47.0,30.09,East,90,0.9,0.9,39,0.00,,,0.00,VWS V14.00,2013-06-30 15:03:00,
2013-06-30 08:04:00,73.6,47.1,30.09,East,90,0.0,0.0,39,0.00,,,0.00,VWS V14.00,2013-06-30 15:04:00,
2013-06-30 08:05:00,73.6,47.1,30.09,East,90,0.0,0.0,39,0.00,,,0.00,VWS V14.00,2013-06-30 15:05:00,
2013-06-30 08:06:00,74.1,48.9,30.09,East,90,0.0,0.0,41,0.00,,,0.00,VWS V14.00,2013-06-30 15:06:00,
2013-06-30 08:07:00,74.3,49.8,30.09,East,90,0.0,0.0,42,0.00,,,0.00,VWS V14.00,2013-06-30 15:07:00,
2013-06-30 08:08:00,74.3,49.8,30.09,East,90,0.0,0.0,42,0.00,,,0.00,VWS V14.00,2013-06-30 15:08:00,
2013-06-30 08:09:00,75.6,50.2,30.09,East,90,0.0,0.0,41,0.00,,,0.00,VWS V14.00,2013-06-30 15:09:00,
2013-06-30 08:10:00,75.6,50.2,30.09,East,90,0.0,0.0,41,0.00,,,0.00,VWS V14.00,2013-06-30 15:10:00,
2013-06-30 08:11:00,75.7,50.4,30.09,East,90,0.0,0.0,41,0.00,,,0.00,VWS V14.00,2013-06-30 15:11:00,
2013-06-30 08:12:00,75.7,50.4,30.09,ENE,68,0.0,0.0,41,0.00,,,0.00,VWS V14.00,2013-06-30 15:12:00,
2013-06-30 08:13:00,76.1,49.4,30.09,East,90,2.0,2.0,39,0.00,,,0.00,VWS V14.00,2013-06-30 15:13:00,
2013-06-30 08:14:00,77.2,48.2,30.09,ESE,112,2.7,2.7,36,0.00,,,0.00,VWS V14.00,2013-06-30 15:14:00,
2013-06-30 08:15:00,77.2,48.2,30.09,East,90,0.9,2.7,36,0.00,,,0.00,VWS V14.00,2013-06-30 15:15:00,
2013-06-30 08:17:00,77.2,48.2,30.09,ESE,112,1.6,1.6,36,0.00,,,0.00,VWS V14.00,2013-06-30 15:17:00,
2013-06-30 08:18:00,77.4,48.3,30.09,East,90,1.1,1.6,36,0.00,,,0.00,VWS V14.00,2013-06-30 15:18:00,
2013-06-30 08:19:00,77.4,48.3,30.09,East,90,0.9,0.9,36,0.00,,,0.00,VWS V14.00,2013-06-30 15:19:00,
2013-06-30 08:20:00,77.5,48.5,30.09,East,90,1.1,1.1,36,0.00,,,0.00,VWS V14.00,2013-06-30 15:20:00,
2013-06-30 08:21:00,77.5,48.5,30.09,East,90,0.0,1.1,36,0.00,,,0.00,VWS V14.00,2013-06-30 15:21:00,
2013-06-30 08:22:00,77.5,48.5,30.09,East,90,0.0,0.0,36,0.00,,,0.00,VWS V14.00,2013-06-30 15:22:00,
2013-06-30 08:23:00,77.7,48.7,30.09,East,90,0.0,0.0,36,0.00,,,0.00,VWS V14.00,2013-06-30 15:23:00,
2013-06-30 08:24:00,77.7,48.7,30.09,East,90,0.0,0.0,36,0.00,,,0.00,VWS V14.00,2013-06-30 15:24:00,
2013-06-30 08:25:00,78.3,49.1,30.09,East,90,0.0,0.0,36,0.00,,,0.00,VWS V14.00,2013-06-30 15:25:00,
2013-06-30 08:26:00,78.3,49.1,30.09,East,90,0.0,0.0,36,0.00,,,0.00,VWS V14.00,2013-06-30 15:26:00,
2013-06-30 08:27:00,78.1,49.0,30.09,East,90,0.0,0.0,36,0.00,,,0.00,VWS V14.00,2013-06-30 15:27:00,
2013-06-30 08:28:00,78.1,49.0,30.09,East,90,0.0,0.0,36,0.00,,,0.00,VWS V14.00,2013-06-30 15:28:00,
2013-06-30 08:29:00,77.9,49.6,30.09,East,90,0.0,0.0,37,0.00,,,0.00,VWS V14.00,2013-06-30 15:29:00,
2013-06-30 08:30:00,78.1,49.7,30.09,East,90,0.0,0.0,37,0.00,,,0.00,VWS V14.00,2013-06-30 15:30:00,
2013-06-30 08:31:00,78.1,49.7,30.09,East,90,0.0,0.0,37,0.00,,,0.00,VWS V14.00,2013-06-30 15:31:00,
2013-06-30 08:32:00,77.9,49.6,30.09,East,90,0.0,0.0,37,0.00,,,0.00,VWS V14.00,2013-06-30 15:32:00,
2013-06-30 08:33:00,77.9,49.6,30.09,East,90,0.0,0.0,37,0.00,,,0.00,VWS V14.00,2013-06-30 15:33:00,
2013-06-30 08:34:00,77.7,50.1,30.09,East,90,0.0,0.0,38,0.00,,,0.00,VWS V14.00,2013-06-30 15:34:00,
2013-06-30 08:35:00,77.7,50.1,30.09,East,90,0.0,0.0,38,0.00,,,0.00,VWS V14.00,2013-06-30 15:35:00,
2013-06-30 08:36:00,77.9,51.0,30.09,ESE,112,0.0,0.0,39,0.00,,,0.00,VWS V14.00,2013-06-30 15:36:00,
2013-06-30 08:37:00,78.1,51.8,30.09,East,90,0.0,0.0,40,0.00,,,0.00,VWS V14.00,2013-06-30 15:37:00,
2013-06-30 08:38:00,78.1,51.8,30.09,East,90,0.0,0.0,40,0.00,,,0.00,VWS V14.00,2013-06-30 15:38:00,
2013-06-30 08:39:00,78.4,51.5,30.09,East,90,0.0,0.0,39,0.00,,,0.00,VWS V14.00,2013-06-30 15:39:00,
2013-06-30 08:40:00,78.4,51.5,30.09,East,90,0.0,0.0,39,0.00,,,0.00,VWS V14.00,2013-06-30 15:40:00,
2013-06-30 08:41:00,79.5,51.7,30.09,East,90,0.0,0.0,38,0.00,,,0.00,VWS V14.00,2013-06-30 15:41:00,
2013-06-30 08:42:00,79.5,51.7,30.09,East,90,0.0,0.0,38,0.00,,,0.00,VWS V14.00,2013-06-30 15:42:00,
2013-06-30 08:43:00,80.8,52.1,30.09,East,90,0.0,0.0,37,0.00,,,0.00,VWS V14.00,2013-06-30 15:43:00,
2013-06-30 08:44:00,81.3,52.6,30.09,East,90,0.0,0.0,37,0.00,,,0.00,VWS V14.00,2013-06-30 15:44:00,
2013-06-30 08:45:00,81.3,52.6,30.09,East,90,0.0,0.0,37,0.00,,,0.00,VWS V14.00,2013-06-30 15:45:00,
2013-06-30 08:46:00,81.7,52.2,30.09,East,90,0.0,0.0,36,0.00,,,0.00,VWS V14.00,2013-06-30 15:46:00,
2013-06-30 08:47:00,81.7,52.2,30.09,ENE,68,0.0,0.0,36,0.00,,,0.00,VWS V14.00,2013-06-30 15:47:00,
2013-06-30 08:48:00,83.7,53.1,30.09,East,90,0.0,0.0,35,0.00,,,0.00,VWS V14.00,2013-06-30 15:48:00,
2013-06-30 08:49:00,83.3,52.0,30.09,East,90,0.0,0.0,34,0.00,,,0.00,VWS V14.00,2013-06-30 15:49:00,
2013-06-30 08:50:00,83.3,52.0,30.09,East,90,0.0,0.0,34,0.00,,,0.00,VWS V14.00,2013-06-30 15:50:00,
2013-06-30 08:51:00,83.3,52.0,30.09,East,90,0.0,0.0,34,0.00,,,0.00,VWS V14.00,2013-06-30 15:51:00,
2013-06-30 08:52:00,82.4,51.2,30.09,East,90,0.0,0.0,34,0.00,,,0.00,VWS V14.00,2013-06-30 15:52:00,
2013-06-30 08:53:00,82.6,51.4,30.09,ESE,112,0.0,0.0,34,0.00,,,0.00,VWS V14.00,2013-06-30 15:53:00,
2013-06-30 08:54:00,82.6,51.4,30.09,ESE,112,0.0,0.0,34,0.00,,,0.00,VWS V14.00,2013-06-30 15:54:00,
2013-06-30 08:55:00,83.3,52.8,30.09,ESE,112,0.0,0.0,35,0.00,,,0.00,VWS V14.00,2013-06-30 15:55:00,
2013-06-30 08:56:00,83.3,52.8,30.09,ESE,112,0.0,0.0,35,0.00,,,0.00,VWS V14.00,2013-06-30 15:56:00,
2013-06-30 08:57:00,84.0,53.5,30.09,ESE,112,0.0,0.0,35,0.00,,,0.00,VWS V14.00,2013-06-30 15:57:00,
2013-06-30 08:58:00,84.0,53.5,30.09,ESE,112,0.0,0.0,35,0.00,,,0.00,VWS V14.00,2013-06-30 15:58:00,
2013-06-30 08:59:00,84.7,54.1,30.09,ESE,112,0.0,0.0,35,0.00,,,0.00,VWS V14.00,2013-06-30 15:59:00,
2013-06-30 09:00:00,85.5,55.5,30.09,ESE,112,0.0,0.0,36,0.00,,,0.00,VWS V14.00,2013-06-30 16:00:00,
2013-06-30 09:01:00,85.5,55.5,30.09,ESE,112,0.0,0.0,36,0.00,,,0.00,VWS V14.00,2013-06-30 16:01:00,
2013-06-30 09:02:00,86.9,56.0,30.09,ESE,112,0.0,0.0,35,0.00,,,0.00,VWS V14.00,2013-06-30 16:02:00,
2013-06-30 09:03:00,86.9,56.0,30.09,ESE,112,0.0,0.0,35,0.00,,,0.00,VWS V14.00,2013-06-30 16:03:00,
2013-06-30 09:04:00,87.6,55.8,30.09,ESE,112,0.0,0.0,34,0.00,,,0.00,VWS V14.00,2013-06-30 16:04:00,
2013-06-30 09:05:00,87.6,55.8,30.09,ESE,112,0.0,0.0,34,0.00,,,0.00,VWS V14.00,2013-06-30 16:05:00,
2013-06-30 09:06:00,89.4,56.6,30.09,ESE,112,0.0,0.0,33,0.00,,,0.00,VWS V14.00,2013-06-30 16:06:00,
2013-06-30 09:07:00,89.4,56.6,30.09,East,90,0.0,0.0,33,0.00,,,0.00,VWS V14.00,2013-06-30 16:07:00,
2013-06-30 09:08:00,91.0,58.0,30.09,East,90,0.0,0.0,33,0.00,,,0.00,VWS V14.00,2013-06-30 16:08:00,
2013-06-30 09:09:00,92.3,56.4,30.09,East,90,0.0,0.0,30,0.00,,,0.00,VWS V14.00,2013-06-30 16:09:00,
2013-06-30 09:10:00,92.3,56.4,30.09,East,90,0.0,0.0,30,0.00,,,0.00,VWS V14.00,2013-06-30 16:10:00,
2013-06-30 09:11:00,93.4,55.4,30.09,East,90,0.0,0.0,28,0.00,,,0.00,VWS V14.00,2013-06-30 16:11:00,
2013-06-30 09:12:00,93.4,55.4,30.09,East,90,0.0,0.0,28,0.00,,,0.00,VWS V14.00,2013-06-30 16:12:00,
2013-06-30 09:13:00,94.5,55.3,30.09,East,90,0.0,0.0,27,0.00,,,0.00,VWS V14.00,2013-06-30 16:13:00,
2013-06-30 09:14:00,95.0,54.8,30.09,East,90,0.0,0.0,26,0.00,,,0.00,VWS V14.00,2013-06-30 16:14:00,
2013-06-30 09:15:00,95.0,54.8,30.09,East,90,0.0,0.0,26,0.00,,,0.00,VWS V14.00,2013-06-30 16:15:00,
2013-06-30 09:16:00,95.2,54.9,30.09,East,90,0.0,0.0,26,0.00,,,0.00,VWS V14.00,2013-06-30 16:16:00,
2013-06-30 09:17:00,95.2,54.9,30.09,East,90,0.0,0.0,26,0.00,,,0.00,VWS V14.00,2013-06-30 16:17:00,
2013-06-30 09:18:00,95.4,52.9,30.09,East,90,0.0,0.0,24,0.00,,,0.00,VWS V14.00,2013-06-30 16:18:00,
2013-06-30 09:19:00,95.9,55.5,30.09,East,90,0.0,0.0,26,0.00,,,0.00,VWS V14.00,2013-06-30 16:19:00,
2013-06-30 09:20:00,95.9,55.5,30.09,East,90,0.0,0.0,26,0.00,,,0.00,VWS V14.00,2013-06-30 16:20:00,
2013-06-30 09:21:00,95.9,55.5,30.09,East,90,0.0,0.0,26,0.00,,,0.00,VWS V14.00,2013-06-30 16:21:00,
2013-06-30 09:22:00,97.0,56.4,30.09,East,90,0.0,0.0,26,0.00,,,0.00,VWS V14.00,2013-06-30 16:22:00,
2013-06-30 09:23:00,97.3,56.8,30.09,East,90,0.0,0.0,26,0.00,,,0.00,VWS V14.00,2013-06-30 16:23:00,
2013-06-30 09:24:00,97.3,56.8,30.09,East,90,0.0,0.0,26,0.00,,,0.00,VWS V14.00,2013-06-30 16:24:00,
2013-06-30 09:25:00,97.7,53.7,30.09,East,90,0.0,0.0,23,0.00,,,0.00,VWS V14.00,2013-06-30 16:25:00,
2013-06-30 09:26:00,97.7,53.7,30.09,East,90,0.0,0.0,23,0.00,,,0.00,VWS V14.00,2013-06-30 16:26:00,
2013-06-30 09:27:00,98.2,56.4,30.09,East,90,0.0,0.0,25,0.00,,,0.00,VWS V14.00,2013-06-30 16:27:00,
2013-06-30 09:28:00,98.2,56.4,30.09,East,90,0.0,0.0,25,0.00,,,0.00,VWS V14.00,2013-06-30 16:28:00,
2013-06-30 09:29:00,98.8,52.1,30.09,East,90,0.0,0.0,21,0.00,,,0.00,VWS V14.00,2013-06-30 16:29:00,
2013-06-30 09:30:00,99.5,51.4,30.09,East,90,0.0,0.0,20,0.00,,,0.00,VWS V14.00,2013-06-30 16:30:00,
2013-06-30 09:31:00,99.5,51.4,30.09,East,90,0.0,0.0,20,0.00,,,0.00,VWS V14.00,2013-06-30 16:31:00,
2013-06-30 09:32:00,100.0,51.8,30.09,East,90,0.0,0.0,20,0.00,,,0.00,VWS V14.00,2013-06-30 16:32:00,
2013-06-30 09:33:00,100.0,51.8,30.09,East,90,0.0,0.0,20,0.00,,,0.00,VWS V14.00,2013-06-30 16:33:00,
2013-06-30 09:34:00,100.0,51.8,30.09,East,90,0.0,0.0,20,0.00,,,0.00,VWS V14.00,2013-06-30 16:34:00,
2013-06-30 09:35:00,100.0,51.8,30.09,East,90,0.0,0.0,20,0.00,,,0.00,VWS V14.00,2013-06-30 16:35:00,
2013-06-30 09:36:00,100.8,51.0,30.09,NNE,22,0.0,0.0,19,0.00,,,0.00,VWS V14.00,2013-06-30 16:36:00,
2013-06-30 09:37:00,100.8,51.0,30.09,NNE,22,1.3,1.3,19,0.00,,,0.00,VWS V14.00,2013-06-30 16:37:00,
2013-06-30 09:38:00,101.1,49.8,30.09,NNE,22,0.0,1.3,18,0.00,,,0.00,VWS V14.00,2013-06-30 16:38:00,
2013-06-30 09:39:00,101.8,50.4,30.09,NNE,22,0.0,0.0,18,0.00,,,0.00,VWS V14.00,2013-06-30 16:39:00,
2013-06-30 09:40:00,101.8,50.4,30.09,NNE,22,0.9,0.9,18,0.00,,,0.00,VWS V14.00,2013-06-30 16:40:00,
2013-06-30 09:41:00,102.0,50.6,30.09,NNE,22,0.0,0.9,18,0.00,,,0.00,VWS V14.00,2013-06-30 16:41:00,
2013-06-30 09:42:00,102.0,50.6,30.09,NNE,22,0.0,0.0,18,0.00,,,0.00,VWS V14.00,2013-06-30 16:42:00,
2013-06-30 09:43:00,101.7,50.3,30.09,NNE,22,1.3,1.3,18,0.00,,,0.00,VWS V14.00,2013-06-30 16:43:00,
2013-06-30 09:44:00,101.3,48.5,30.09,North,0,1.1,1.3,17,0.00,,,0.00,VWS V14.00,2013-06-30 16:44:00,
2013-06-30 09:45:00,101.3,48.5,30.09,North,0,1.1,1.3,17,0.00,,,0.00,VWS V14.00,2013-06-30 16:45:00,
2013-06-30 09:46:00,100.8,48.0,30.09,North,0,1.6,1.6,17,0.00,,,0.00,VWS V14.00,2013-06-30 16:46:00,
2013-06-30 09:47:00,100.8,48.0,30.09,North,0,1.6,1.6,17,0.00,,,0.00,VWS V14.00,2013-06-30 16:47:00,
2013-06-30 09:48:00,101.3,46.8,30.09,North,0,1.6,1.6,16,0.00,,,0.00,VWS V14.00,2013-06-30 16:48:00,
2013-06-30 09:49:00,101.5,48.6,30.09,North,0,1.3,1.3,17,0.00,,,0.00,VWS V14.00,2013-06-30 16:49:00,
2013-06-30 09:50:00,101.5,48.6,30.09,North,0,2.0,2.0,17,0.00,,,0.00,VWS V14.00,2013-06-30 16:50:00,
2013-06-30 09:51:00,101.5,48.6,30.09,North,0,0.9,2.0,17,0.00,,,0.00,VWS V14.00,2013-06-30 16:51:00,
2013-06-30 09:52:00,102.4,47.7,30.09,North,0,1.6,1.6,16,0.00,,,0.00,VWS V14.00,2013-06-30 16:52:00,
2013-06-30 09:53:00,102.0,47.4,30.09,North,0,0.0,1.6,16,0.00,,,0.00,VWS V14.00,2013-06-30 16:53:00,
2013-06-30 09:54:00,101.8,47.3,30.09,North,0,1.3,1.3,16,0.00,,,0.00,VWS V14.00,2013-06-30 16:54:00,
2013-06-30 09:55:00,101.8,47.3,30.09,North,0,1.3,1.3,16,0.00,,,0.00,VWS V14.00,2013-06-30 16:55:00,
2013-06-30 09:56:00,101.8,47.3,30.09,NNE,22,1.3,1.3,16,0.00,,,0.00,VWS V14.00,2013-06-30 16:56:00,
2013-06-30 09:57:00,100.8,46.4,30.09,NNE,22,0.0,1.3,16,0.00,,,0.00,VWS V14.00,2013-06-30 16:57:00,
2013-06-30 09:58:00,100.8,46.4,30.09,North,0,0.0,0.0,16,0.00,,,0.00,VWS V14.00,2013-06-30 16:58:00,
2013-06-30 09:59:00,100.6,46.3,30.09,North,0,0.0,0.0,16,0.00,,,0.00,VWS V14.00,2013-06-30 16:59:00,
2013-06-30 10:00:00,100.6,46.3,30.09,North,0,0.0,0.0,16,0.00,,,0.00,VWS V14.00,2013-06-30 17:00:00,
2013-06-30 10:01:00,100.0,45.8,30.09,NNW,338,1.6,1.6,16,0.00,,,0.00,VWS V14.00,2013-06-30 17:01:00,
2013-06-30 10:02:00,99.5,45.4,30.09,WNW,292,1.3,1.6,16,0.00,,,0.00,VWS V14.00,2013-06-30 17:02:00,
2013-06-30 10:03:00,99.5,45.4,30.09,WNW,292,0.9,1.3,16,0.00,,,0.00,VWS V14.00,2013-06-30 17:03:00,
2013-06-30 10:04:00,99.1,45.1,30.09,WNW,292,1.1,1.1,16,0.00,,,0.00,VWS V14.00,2013-06-30 17:04:00,
2013-06-30 10:05:00,99.1,45.1,30.09,NNW,338,1.6,1.6,16,0.00,,,0.00,VWS V14.00,2013-06-30 17:05:00,
2013-06-30 10:06:00,98.6,44.7,30.09,NNW,338,0.0,1.6,16,0.00,,,0.00,VWS V14.00,2013-06-30 17:06:00,
2013-06-30 10:07:00,98.6,44.7,30.09,NNW,338,0.0,0.0,16,0.00,,,0.00,VWS V14.00,2013-06-30 17:07:00,
2013-06-30 10:08:00,98.2,46.0,30.09,North,0,0.0,0.0,17,0.00,,,0.00,VWS V14.00,2013-06-30 17:08:00,
2013-06-30 10:09:00,97.3,45.3,30.09,North,0,0.0,0.0,17,0.00,,,0.00,VWS V14.00,2013-06-30 17:09:00,
2013-06-30 10:10:00,97.3,45.3,30.09,North,0,0.0,0.0,17,0.00,,,0.00,VWS V14.00,2013-06-30 17:10:00,
2013-06-30 10:11:00,97.2,45.1,30.09,North,0,0.0,0.0,17,0.00,,,0.00,VWS V14.00,2013-06-30 17:11:00,
2013-06-30 10:12:00,97.2,45.1,30.09,North,0,0.0,0.0,17,0.00,,,0.00,VWS V14.00,2013-06-30 17:12:00,
2013-06-30 10:13:00,96.6,46.2,30.09,NNW,338,0.0,0.0,18,0.00,,,0.00,VWS V14.00,2013-06-30 17:13:00,
2013-06-30 10:14:00,96.1,47.2,30.09,NNW,338,0.0,0.0,19,0.00,,,0.00,VWS V14.00,2013-06-30 17:14:00,
2013-06-30 10:15:00,96.1,47.2,30.09,NNW,338,0.0,0.0,19,0.00,,,0.00,VWS V14.00,2013-06-30 17:15:00,
2013-06-30 10:16:00,95.9,47.0,30.09,NNW,338,0.0,0.0,19,0.00,,,0.00,VWS V14.00,2013-06-30 17:16:00,
2013-06-30 10:17:00,95.9,47.0,30.09,NNW,338,0.0,0.0,19,0.00,,,0.00,VWS V14.00,2013-06-30 17:17:00,
2013-06-30 10:18:00,95.9,47.0,30.09,NW,315,0.0,0.0,19,0.00,,,0.00,VWS V14.00,2013-06-30 17:18:00,
2013-06-30 10:19:00,95.7,46.9,30.09,NW,315,0.0,0.0,19,0.00,,,0.00,VWS V14.00,2013-06-30 17:19:00,
2013-06-30 10:20:00,95.7,46.9,30.09,NW,315,0.0,0.0,19,0.00,,,0.00,VWS V14.00,2013-06-30 17:20:00,
2013-06-30 10:21:00,95.7,46.9,30.09,NW,315,0.0,0.0,19,0.00,,,0.00,VWS V14.00,2013-06-30 17:21:00,
2013-06-30 10:22:00,95.5,48.1,30.09,NW,315,0.0,0.0,20,0.00,,,0.00,VWS V14.00,2013-06-30 17:22:00,
2013-06-30 10:23:00,95.5,48.1,30.09,NW,315,0.0,0.0,20,0.00,,,0.00,VWS V14.00,2013-06-30 17:23:00,
2013-06-30 10:24:00,95.5,48.1,30.09,WNW,292,0.0,0.0,20,0.00,,,0.00,VWS V14.00,2013-06-30 17:24:00,
2013-06-30 10:25:00,95.5,48.1,30.09,WNW,292,0.0,0.0,20,0.00,,,0.00,VWS V14.00,2013-06-30 17:25:00,
2013-06-30 10:26:00,95.5,48.1,30.09,WNW,292,0.0,0.0,20,0.00,,,0.00,VWS V14.00,2013-06-30 17:26:00,
2013-06-30 10:27:00,95.5,48.1,30.09,WNW,292,0.0,0.0,20,0.00,,,0.00,VWS V14.00,2013-06-30 17:27:00,
2013-06-30 10:28:00,95.5,48.1,30.09,WNW,292,0.0,0.0,20,0.00,,,0.00,VWS V14.00,2013-06-30 17:28:00,
2013-06-30 10:29:00,95.4,48.0,30.09,WNW,292,0.0,0.0,20,0.00,,,0.00,VWS V14.00,2013-06-30 17:29:00,
2013-06-30 10:30:00,95.4,48.0,30.09,WNW,292,0.0,0.0,20,0.00,,,0.00,VWS V14.00,2013-06-30 17:30:00,
2013-06-30 10:31:00,95.5,48.1,30.09,WNW,292,0.0,0.0,20,0.00,,,0.00,VWS V14.00,2013-06-30 17:31:00,
2013-06-30 10:32:00,95.9,48.4,30.09,WNW,292,0.0,0.0,20,0.00,,,0.00,VWS V14.00,2013-06-30 17:32:00,
2013-06-30 10:33:00,95.9,48.4,30.09,WNW,292,0.0,0.0,20,0.00,,,0.00,VWS V14.00,2013-06-30 17:33:00,
2013-06-30 10:34:00,96.3,48.7,30.09,WNW,292,0.0,0.0,20,0.00,,,0.00,VWS V14.00,2013-06-30 17:34:00,
2013-06-30 10:35:00,96.3,48.7,30.09,WNW,292,0.0,0.0,20,0.00,,,0.00,VWS V14.00,2013-06-30 17:35:00,
2013-06-30 10:36:00,96.8,49.2,30.09,WNW,292,0.0,0.0,20,0.00,,,0.00,VWS V14.00,2013-06-30 17:36:00,
2013-06-30 10:37:00,96.8,49.2,30.09,WNW,292,0.0,0.0,20,0.00,,,0.00,VWS V14.00,2013-06-30 17:37:00,
2013-06-30 10:38:00,97.3,49.6,30.09,WNW,292,0.0,0.0,20,0.00,,,0.00,VWS V14.00,2013-06-30 17:38:00,
2013-06-30 10:39:00,97.9,50.0,30.09,WNW,292,0.0,0.0,20,0.00,,,0.00,VWS V14.00,2013-06-30 17:39:00,
2013-06-30 10:40:00,97.9,50.0,30.09,WNW,292,0.0,0.0,20,0.00,,,0.00,VWS V14.00,2013-06-30 17:40:00,
2013-06-30 10:41:00,98.1,48.8,30.09,WNW,292,0.0,0.0,19,0.00,,,0.00,VWS V14.00,2013-06-30 17:41:00,
2013-06-30 10:42:00,98.1,48.8,30.09,WNW,292,0.0,0.0,19,0.00,,,0.00,VWS V14.00,2013-06-30 17:42:00,
2013-06-30 10:43:00,98.2,50.3,30.09,WNW,292,0.0,0.0,20,0.00,,,0.00,VWS V14.00,2013-06-30 17:43:00,
2013-06-30 10:44:00,98.2,50.3,30.09,WNW,292,0.0,0.0,20,0.00,,,0.00,VWS V14.00,2013-06-30 17:44:00,
2013-06-30 10:45:00,98.2,50.3,30.09,WNW,292,0.0,0.0,20,0.00,,,0.00,VWS V14.00,2013-06-30 17:45:00,
2013-06-30 10:46:00,97.7,49.9,30.09,WNW,292,0.0,0.0,20,0.00,,,0.00,VWS V14.00,2013-06-30 17:46:00,
2013-06-30 10:47:00,97.7,49.9,30.09,WNW,292,0.0,0.0,20,0.00,,,0.00,VWS V14.00,2013-06-30 17:47:00,
2013-06-30 10:48:00,97.9,50.0,30.09,WNW,292,0.0,0.0,20,0.00,,,0.00,VWS V14.00,2013-06-30 17:48:00,
2013-06-30 10:49:00,97.9,50.0,30.09,WNW,292,0.0,0.0,20,0.00,,,0.00,VWS V14.00,2013-06-30 17:49:00,
2013-06-30 10:50:00,97.7,51.2,30.09,WNW,292,0.0,0.0,21,0.00,,,0.00,VWS V14.00,2013-06-30 17:50:00,
2013-06-30 10:51:00,97.7,51.2,30.09,WNW,292,0.0,0.0,21,0.00,,,0.00,VWS V14.00,2013-06-30 17:51:00,
2013-06-30 10:52:00,98.1,51.5,30.09,WNW,292,0.0,0.0,21,0.00,,,0.00,VWS V14.00,2013-06-30 17:52:00,
2013-06-30 10:53:00,98.1,51.5,30.09,WNW,292,0.0,0.0,21,0.00,,,0.00,VWS V14.00,2013-06-30 17:53:00,
2013-06-30 10:54:00,98.6,50.6,30.09,WNW,292,0.0,0.0,20,0.00,,,0.00,VWS V14.00,2013-06-30 17:54:00,
2013-06-30 10:55:00,99.5,51.4,30.09,WNW,292,0.0,0.0,20,0.00,,,0.00,VWS V14.00,2013-06-30 17:55:00,
2013-06-30 10:56:00,99.5,51.4,30.09,WNW,292,0.0,0.0,20,0.00,,,0.00,VWS V14.00,2013-06-30 17:56:00,
2013-06-30 10:57:00,100.2,47.6,30.09,WNW,292,0.0,0.0,17,0.00,,,0.00,VWS V14.00,2013-06-30 17:57:00,
2013-06-30 10:58:00,100.2,47.6,30.09,WNW,292,0.0,0.0,17,0.00,,,0.00,VWS V14.00,2013-06-30 17:58:00,
2013-06-30 10:59:00,100.4,47.7,30.09,WNW,292,0.0,0.0,17,0.00,,,0.00,VWS V14.00,2013-06-30 17:59:00,
2013-06-30 11:00:00,100.4,47.7,30.09,WNW,292,0.0,0.0,17,0.00,,,0.00,VWS V14.00,2013-06-30 18:00:00,
2013-06-30 11:01:00,99.7,48.7,30.09,WNW,292,0.0,0.0,18,0.00,,,0.00,VWS V14.00,2013-06-30 18:01:00,
2013-06-30 11:02:00,99.0,48.1,30.09,WNW,292,0.0,0.0,18,0.00,,,0.00,VWS V14.00,2013-06-30 18:02:00,
2013-06-30 11:03:00,99.0,48.1,30.09,WNW,292,0.0,0.0,18,0.00,,,0.00,VWS V14.00,2013-06-30 18:03:00,
2013-06-30 11:04:00,98.4,49.1,30.09,WNW,292,0.0,0.0,19,0.00,,,0.00,VWS V14.00,2013-06-30 18:04:00,
2013-06-30 11:05:00,98.4,49.1,30.09,WNW,292,0.0,0.0,19,0.00,,,0.00,VWS V14.00,2013-06-30 18:05:00,
2013-06-30 11:06:00,97.5,48.4,30.09,WNW,292,0.0,0.0,19,0.00,,,0.00,VWS V14.00,2013-06-30 18:06:00,
2013-06-30 11:07:00,97.5,48.4,30.09,WNW,292,0.0,0.0,19,0.00,,,0.00,VWS V14.00,2013-06-30 18:07:00,
2013-06-30 11:08:00,96.6,49.0,30.09,WNW,292,0.0,0.0,20,0.00,,,0.00,VWS V14.00,2013-06-30 18:08:00,
2013-06-30 11:09:00,95.9,48.4,30.09,WNW,292,0.0,0.0,20,0.00,,,0.00,VWS V14.00,2013-06-30 18:09:00,
2013-06-30 11:10:00,95.9,48.4,30.09,WNW,292,0.0,0.0,20,0.00,,,0.00,VWS V14.00,2013-06-30 18:10:00,
2013-06-30 11:11:00,95.2,49.1,30.09,WNW,292,0.0,0.0,21,0.00,,,0.00,VWS V14.00,2013-06-30 18:11:00,
2013-06-30 11:12:00,95.2,49.1,30.09,WNW,292,0.0,0.0,21,0.00,,,0.00,VWS V14.00,2013-06-30 18:12:00,
2013-06-30 11:13:00,95.0,47.7,30.09,WNW,292,0.9,0.9,20,0.00,,,0.00,VWS V14.00,2013-06-30 18:13:00,
2013-06-30 11:14:00,95.0,47.7,30.09,WNW,292,0.0,0.9,20,0.00,,,0.00,VWS V14.00,2013-06-30 18:14:00,
2013-06-30 11:15:00,94.5,48.5,30.09,WNW,292,0.0,0.0,21,0.00,,,0.00,VWS V14.00,2013-06-30 18:15:00,
2013-06-30 11:16:00,94.3,48.4,30.09,WNW,292,0.0,0.0,21,0.00,,,0.00,VWS V14.00,2013-06-30 18:16:00,
2013-06-30 11:17:00,94.3,48.4,30.09,West,270,2.2,2.2,21,0.00,,,0.00,VWS V14.00,2013-06-30 18:17:00,
2013-06-30 11:18:00,94.5,48.5,30.09,West,270,0.0,2.2,21,0.00,,,0.00,VWS V14.00,2013-06-30 18:18:00,
2013-06-30 11:19:00,94.5,48.5,30.09,West,270,0.0,0.0,21,0.00,,,0.00,VWS V14.00,2013-06-30 18:19:00,
2013-06-30 11:20:00,94.5,48.5,30.09,West,270,0.0,0.0,21,0.00,,,0.00,VWS V14.00,2013-06-30 18:20:00,
2013-06-30 11:21:00,94.5,48.5,30.09,West,270,0.0,0.0,21,0.00,,,0.00,VWS V14.00,2013-06-30 18:21:00,
2013-06-30 11:22:00,94.6,47.4,30.09,West,270,0.0,0.0,20,0.00,,,0.00,VWS V14.00,2013-06-30 18:22:00,
2013-06-30 11:23:00,94.6,47.4,30.09,West,270,0.0,0.0,20,0.00,,,0.00,VWS V14.00,2013-06-30 18:23:00,
2013-06-30 11:24:00,94.6,48.7,30.09,West,270,0.0,0.0,21,0.00,,,0.00,VWS V14.00,2013-06-30 18:24:00,
2013-06-30 11:25:00,94.3,48.4,30.09,West,270,0.0,0.0,21,0.00,,,0.00,VWS V14.00,2013-06-30 18:25:00,
2013-06-30 11:26:00,94.3,48.4,30.09,West,270,0.0,0.0,21,0.00,,,0.00,VWS V14.00,2013-06-30 18:26:00,
2013-06-30 11:27:00,94.1,48.2,30.09,West,270,0.0,0.0,21,0.00,,,0.00,VWS V14.00,2013-06-30 18:27:00,
2013-06-30 11:28:00,94.1,48.2,30.09,West,270,0.0,0.0,21,0.00,,,0.00,VWS V14.00,2013-06-30 18:28:00,
2013-06-30 11:29:00,94.8,48.8,30.09,West,270,0.0,0.0,21,0.00,,,0.00,VWS V14.00,2013-06-30 18:29:00,
2013-06-30 11:30:00,94.8,48.8,30.09,West,270,0.0,0.0,21,0.00,,,0.00,VWS V14.00,2013-06-30 18:30:00,
2013-06-30 11:31:00,95.4,48.0,30.09,West,270,0.0,0.0,20,0.00,,,0.00,VWS V14.00,2013-06-30 18:31:00,
2013-06-30 11:32:00,96.4,48.9,30.09,West,270,0.0,0.0,20,0.00,,,0.00,VWS V14.00,2013-06-30 18:32:00,
2013-06-30 11:33:00,96.4,48.9,30.09,West,270,0.0,0.0,20,0.00,,,0.00,VWS V14.00,2013-06-30 18:33:00,
2013-06-30 11:34:00,97.5,48.4,30.09,West,270,0.0,0.0,19,0.00,,,0.00,VWS V14.00,2013-06-30 18:34:00,
2013-06-30 11:35:00,97.5,48.4,30.09,West,270,0.0,0.0,19,0.00,,,0.00,VWS V14.00,2013-06-30 18:35:00,
2013-06-30 11:36:00,98.2,49.0,30.09,West,270,0.0,0.0,19,0.00,,,0.00,VWS V14.00,2013-06-30 18:36:00,
2013-06-30 11:37:00,98.2,49.0,30.09,West,270,1.1,1.1,19,0.00,,,0.00,VWS V14.00,2013-06-30 18:37:00,
2013-06-30 11:38:00,99.0,48.1,30.09,West,270,1.3,1.3,18,0.00,,,0.00,VWS V14.00,2013-06-30 18:38:00,
2013-06-30 11:39:00,99.7,47.2,30.09,West,270,2.5,2.5,17,0.00,,,0.00,VWS V14.00,2013-06-30 18:39:00,
2013-06-30 11:40:00,99.7,47.2,30.09,WNW,292,1.1,1.1,17,0.00,,,0.00,VWS V14.00,2013-06-30 18:40:00,
2013-06-30 11:41:00,99.5,47.0,30.09,NNE,22,1.1,1.6,17,0.00,,,0.00,VWS V14.00,2013-06-30 18:41:00,
2013-06-30 11:42:00,99.5,47.0,30.09,NNE,22,3.1,3.1,17,0.00,,,0.00,VWS V14.00,2013-06-30 18:42:00,
2013-06-30 11:43:00,99.7,47.2,30.09,WSW,248,2.7,3.1,17,0.00,,,0.00,VWS V14.00,2013-06-30 18:43:00,
2013-06-30 11:44:00,99.7,47.2,30.09,WSW,248,2.0,2.7,17,0.00,,,0.00,VWS V14.00,2013-06-30 18:44:00,
2013-06-30 11:45:00,100.9,46.5,30.09,West,270,0.0,2.0,16,0.00,,,0.00,VWS V14.00,2013-06-30 18:45:00,
2013-06-30 11:46:00,101.1,46.7,30.09,WSW,248,2.5,2.5,16,0.00,,,0.00,VWS V14.00,2013-06-30 18:46:00,
2013-06-30 11:47:00,101.1,46.7,30.09,West,270,0.9,2.5,16,0.00,,,0.00,VWS V14.00,2013-06-30 18:47:00,
2013-06-30 11:48:00,101.3,46.8,30.09,WNW,292,0.0,0.9,16,0.00,,,0.00,VWS V14.00,2013-06-30 18:48:00,
2013-06-30 11:49:00,101.3,46.8,30.09,WNW,292,0.0,0.0,16,0.00,,,0.00,VWS V14.00,2013-06-30 18:49:00,
2013-06-30 11:50:00,101.7,47.1,30.09,WNW,292,0.0,0.0,16,0.00,,,0.00,VWS V14.00,2013-06-30 18:50:00,
2013-06-30 11:51:00,101.7,47.1,30.09,West,270,2.0,2.0,16,0.00,,,0.00,VWS V14.00,2013-06-30 18:51:00,
2013-06-30 11:52:00,102.6,46.1,30.09,West,270,1.6,2.0,15,0.00,,,0.00,VWS V14.00,2013-06-30 18:52:00,
2013-06-30 11:53:00,102.6,46.1,30.09,West,270,2.9,2.9,15,0.00,,,0.00,VWS V14.00,2013-06-30 18:53:00,
2013-06-30 11:54:00,103.5,46.8,30.09,WSW,248,2.7,2.9,15,0.00,,,0.00,VWS V14.00,2013-06-30 18:54:00,
2013-06-30 11:55:00,103.8,47.1,30.09,WSW,248,0.9,2.7,15,0.00,,,0.00,VWS V14.00,2013-06-30 18:55:00,
2013-06-30 11:56:00,103.8,47.1,30.09,WSW,248,1.1,1.1,15,0.00,,,0.00,VWS V14.00,2013-06-30 18:56:00,
2013-06-30 11:57:00,104.4,47.5,30.09,West,270,0.9,1.1,15,0.00,,,0.00,VWS V14.00,2013-06-30 18:57:00,
2013-06-30 11:58:00,104.4,47.5,30.09,WNW,292,2.5,2.5,15,0.00,,,0.00,VWS V14.00,2013-06-30 18:58:00,
2013-06-30 11:59:00,103.5,46.8,30.09,West,270,2.7,2.7,15,0.00,,,0.00,VWS V14.00,2013-06-30 18:59:00,
2013-06-30 12:00:00,103.5,46.8,30.09,North,0,3.1,3.1,15,0.00,,,0.00,VWS V14.00,2013-06-30 19:00:00,
2013-06-30 12:01:00,102.7,46.3,30.09,North,0,2.0,3.1,15,0.00,,,0.00,VWS V14.00,2013-06-30 19:01:00,
2013-06-30 12:02:00,102.9,44.6,30.09,WNW,292,1.6,2.0,14,0.00,,,0.00,VWS V14.00,2013-06-30 19:02:00,
2013-06-30 12:03:00,102.9,44.6,30.09,NW,315,2.9,2.9,14,0.00,,,0.00,VWS V14.00,2013-06-30 19:03:00,
2013-06-30 12:04:00,103.3,46.7,30.06,NW,315,3.1,3.1,15,0.00,,,0.00,VWS V14.00,2013-06-30 19:04:00,
2013-06-30 12:05:00,103.3,46.7,30.06,WNW,292,0.9,3.1,15,0.00,,,0.00,VWS V14.00,2013-06-30 19:05:00,
2013-06-30 12:06:00,104.2,45.6,30.06,West,270,3.6,3.6,14,0.00,,,0.00,VWS V14.00,2013-06-30 19:06:00,
2013-06-30 12:07:00,104.2,45.6,30.06,WNW,292,2.5,3.6,14,0.00,,,0.00,VWS V14.00,2013-06-30 19:07:00,
2013-06-30 12:08:00,104.0,45.4,30.06,WNW,292,0.0,2.5,14,0.00,,,0.00,VWS V14.00,2013-06-30 19:08:00,
2013-06-30 12:09:00,103.6,47.0,30.06,WNW,292,0.0,0.0,15,0.00,,,0.00,VWS V14.00,2013-06-30 19:09:00,
2013-06-30 12:10:00,103.6,47.0,30.06,WNW,292,0.0,0.0,15,0.00,,,0.00,VWS V14.00,2013-06-30 19:10:00,
2013-06-30 12:11:00,103.1,46.6,30.06,WNW,292,0.0,0.0,15,0.00,,,0.00,VWS V14.00,2013-06-30 19:11:00,
2013-06-30 12:12:00,103.1,46.6,30.06,WNW,292,0.0,0.0,15,0.00,,,0.00,VWS V14.00,2013-06-30 19:12:00,
2013-06-30 12:13:00,103.1,46.6,30.06,West,270,0.0,0.0,15,0.00,,,0.00,VWS V14.00,2013-06-30 19:13:00,
2013-06-30 12:14:00,103.1,46.6,30.06,West,270,1.3,1.3,15,0.00,,,0.00,VWS V14.00,2013-06-30 19:14:00,
2013-06-30 12:15:00,104.0,45.4,30.06,West,270,1.1,1.3,14,0.00,,,0.00,VWS V14.00,2013-06-30 19:15:00,
2013-06-30 12:16:00,104.0,45.4,30.06,West,270,0.0,1.1,14,0.00,,,0.00,VWS V14.00,2013-06-30 19:16:00,
2013-06-30 12:17:00,103.8,45.3,30.06,West,270,3.1,3.1,14,0.00,,,0.00,VWS V14.00,2013-06-30 19:17:00,
2013-06-30 12:18:00,102.9,44.6,30.06,NW,315,0.9,3.1,14,0.00,,,0.00,VWS V14.00,2013-06-30 19:18:00,
2013-06-30 12:19:00,102.9,44.6,30.06,NW,315,0.0,0.9,14,0.00,,,0.00,VWS V14.00,2013-06-30 19:19:00,
2013-06-30 12:20:00,102.4,44.2,30.06,West,270,2.0,2.0,14,0.00,,,0.00,VWS V14.00,2013-06-30 19:20:00,
2013-06-30 12:21:00,102.4,44.2,30.06,North,0,1.3,2.0,14,0.00,,,0.00,VWS V14.00,2013-06-30 19:21:00,
2013-06-30 12:22:00,101.5,39.5,30.06,NW,315,1.1,1.3,12,0.00,,,0.00,VWS V14.00,2013-06-30 19:22:00,
2013-06-30 12:23:00,101.5,39.5,30.06,WNW,292,1.3,1.3,12,0.00,,,0.00,VWS V14.00,2013-06-30 19:23:00,
2013-06-30 12:24:00,102.2,40.0,30.06,NW,315,2.0,2.0,12,0.00,,,0.00,VWS V14.00,2013-06-30 19:24:00,
2013-06-30 12:25:00,102.6,40.3,30.06,North,0,3.8,3.8,12,0.00,,,0.00,VWS V14.00,2013-06-30 19:25:00,
2013-06-30 12:26:00,102.6,40.3,30.06,WSW,248,1.1,3.8,12,0.00,,,0.00,VWS V14.00,2013-06-30 19:26:00,
2013-06-30 12:27:00,103.8,45.3,30.06,East,90,2.9,2.9,14,0.00,,,0.00,VWS V14.00,2013-06-30 19:27:00,
2013-06-30 12:28:00,103.8,45.3,30.06,North,0,2.5,2.9,14,0.00,,,0.00,VWS V14.00,2013-06-30 19:28:00,
2013-06-30 12:29:00,104.2,45.6,30.06,WNW,292,2.7,2.7,14,0.00,,,0.00,VWS V14.00,2013-06-30 19:29:00,
2013-06-30 12:30:00,104.2,45.6,30.06,NNW,338,2.9,2.9,14,0.00,,,0.00,VWS V14.00,2013-06-30 19:30:00,
2013-06-30 12:31:00,103.6,41.1,30.06,NE,45,4.7,4.7,12,0.00,,,0.00,VWS V14.00,2013-06-30 19:31:00,
2013-06-30 12:32:00,103.1,40.7,30.06,WNW,292,4.3,4.7,12,0.00,,,0.00,VWS V14.00,2013-06-30 19:32:00,
2013-06-30 12:33:00,103.1,40.7,30.06,NW,315,2.7,4.3,12,0.00,,,0.00,VWS V14.00,2013-06-30 19:33:00,
2013-06-30 12:34:00,102.9,40.6,30.06,NNW,338,3.6,3.6,12,0.00,,,0.00,VWS V14.00,2013-06-30 19:34:00,
2013-06-30 12:35:00,102.9,40.6,30.06,WNW,292,3.4,3.6,12,0.00,,,0.00,VWS V14.00,2013-06-30 19:35:00,
2013-06-30 12:36:00,102.7,40.5,30.06,WNW,292,2.0,3.4,12,0.00,,,0.00,VWS V14.00,2013-06-30 19:36:00,
2013-06-30 12:37:00,102.7,40.5,30.06,NNW,338,3.1,3.1,12,0.00,,,0.00,VWS V14.00,2013-06-30 19:37:00,
2013-06-30 12:38:00,101.5,39.5,30.06,NNW,338,4.0,4.0,12,0.00,,,0.00,VWS V14.00,2013-06-30 19:38:00,
2013-06-30 12:39:00,101.3,39.3,30.06,North,0,3.1,4.0,12,0.00,,,0.00,VWS V14.00,2013-06-30 19:39:00,
2013-06-30 12:40:00,101.3,39.3,30.06,NW,315,4.0,4.0,12,0.00,,,0.00,VWS V14.00,2013-06-30 19:40:00,
2013-06-30 12:41:00,101.8,39.8,30.06,NW,315,3.8,4.0,12,0.00,,,0.00,VWS V14.00,2013-06-30 19:41:00,
2013-06-30 12:42:00,101.8,39.8,30.06,West,270,1.6,3.8,12,0.00,,,0.00,VWS V14.00,2013-06-30 19:42:00,
2013-06-30 12:43:00,102.6,40.3,30.06,NW,315,3.4,3.4,12,0.00,,,0.00,VWS V14.00,2013-06-30 19:43:00,
2013-06-30 12:45:00,102.6,40.3,30.06,NW,315,3.4,3.4,12,0.00,,,0.00,VWS V14.00,2013-06-30 19:45:00,
2013-06-30 12:46:00,102.6,40.3,30.06,NW,315,3.4,3.4,12,0.00,,,0.00,VWS V14.00,2013-06-30 19:46:00,
2013-06-30 12:47:00,103.6,45.2,30.06,WNW,292,3.6,3.6,14,0.00,,,0.00,VWS V14.00,2013-06-30 19:47:00,
2013-06-30 12:48:00,103.5,45.0,30.06,NW,315,1.6,3.6,14,0.00,,,0.00,VWS V14.00,2013-06-30 19:48:00,
2013-06-30 12:49:00,103.5,45.0,30.06,NNE,22,2.5,2.5,14,0.00,,,0.00,VWS V14.00,2013-06-30 19:49:00,
2013-06-30 12:50:00,103.3,40.9,30.06,NW,315,2.0,2.5,12,0.00,,,0.00,VWS V14.00,2013-06-30 19:50:00,
2013-06-30 12:51:00,103.3,40.9,30.06,West,270,2.5,2.5,12,0.00,,,0.00,VWS V14.00,2013-06-30 19:51:00,
2013-06-30 12:52:00,103.8,41.3,30.06,West,270,1.6,2.5,12,0.00,,,0.00,VWS V14.00,2013-06-30 19:52:00,
2013-06-30 12:53:00,103.8,41.3,30.06,West,270,0.0,1.6,12,0.00,,,0.00,VWS V14.00,2013-06-30 19:53:00,
2013-06-30 12:54:00,104.2,45.6,30.06,West,270,2.2,2.2,14,0.00,,,0.00,VWS V14.00,2013-06-30 19:54:00,
2013-06-30 12:55:00,104.5,45.9,30.06,WNW,292,2.7,2.7,14,0.00,,,0.00,VWS V14.00,2013-06-30 19:55:00,
2013-06-30 12:56:00,104.5,45.9,30.06,WNW,292,3.1,3.1,14,0.00,,,0.00,VWS V14.00,2013-06-30 19:56:00,
2013-06-30 12:57:00,103.6,41.1,30.06,NW,315,6.5,6.5,12,0.00,,,0.00,VWS V14.00,2013-06-30 19:57:00,
2013-06-30 12:58:00,103.6,41.1,30.06,WNW,292,3.1,6.5,12,0.00,,,0.00,VWS V14.00,2013-06-30 19:58:00,
2013-06-30 12:59:00,103.1,40.7,30.06,NE,45,2.7,3.1,12,0.00,,,0.00,VWS V14.00,2013-06-30 19:59:00,
2013-06-30 13:00:00,103.1,40.7,30.06,WNW,292,2.9,2.9,12,0.00,,,0.00,VWS V14.00,2013-06-30 20:00:00,
2013-06-30 13:01:00,103.1,40.7,30.06,NE,45,2.9,2.9,12,0.00,,,0.00,VWS V14.00,2013-06-30 20:01:00,
2013-06-30 13:02:00,103.5,41.0,30.06,WNW,292,2.0,2.9,12,0.00,,,0.00,VWS V14.00,2013-06-30 20:02:00,
2013-06-30 13:03:00,103.5,41.0,30.06,SW,225,2.0,2.0,12,0.00,,,0.00,VWS V14.00,2013-06-30 20:03:00,
2013-06-30 13:04:00,103.8,41.3,30.06,NNE,22,1.6,2.0,12,0.00,,,0.00,VWS V14.00,2013-06-30 20:04:00,
2013-06-30 13:05:00,103.8,41.3,30.06,WNW,292,2.9,2.9,12,0.00,,,0.00,VWS V14.00,2013-06-30 20:05:00,
2013-06-30 13:06:00,103.3,40.9,30.06,WNW,292,0.9,2.9,12,0.00,,,0.00,VWS V14.00,2013-06-30 20:06:00,
2013-06-30 13:07:00,103.3,40.9,30.06,WNW,292,2.0,2.0,12,0.00,,,0.00,VWS V14.00,2013-06-30 20:07:00,
2013-06-30 13:08:00,102.2,40.0,30.06,WNW,292,3.8,3.8,12,0.00,,,0.00,VWS V14.00,2013-06-30 20:08:00,
2013-06-30 13:09:00,102.2,40.0,30.06,NNW,338,4.0,4.0,12,0.00,,,0.00,VWS V14.00,2013-06-30 20:09:00,
2013-06-30 13:10:00,100.9,39.1,30.06,North,0,2.9,2.9,12,0.00,,,0.00,VWS V14.00,2013-06-30 20:10:00,
2013-06-30 13:11:00,99.9,40.3,30.06,NNW,338,3.1,3.1,13,0.00,,,0.00,VWS V14.00,2013-06-30 20:11:00,
2013-06-30 13:12:00,99.9,40.3,30.06,WNW,292,2.7,3.1,13,0.00,,,0.00,VWS V14.00,2013-06-30 20:12:00,
2013-06-30 13:13:00,100.8,38.9,30.06,NW,315,2.9,2.9,12,0.00,,,0.00,VWS V14.00,2013-06-30 20:13:00,
2013-06-30 13:14:00,100.8,38.9,30.06,NNW,338,2.0,2.9,12,0.00,,,0.00,VWS V14.00,2013-06-30 20:14:00,
2013-06-30 13:15:00,101.5,39.5,30.06,West,270,2.9,2.9,12,0.00,,,0.00,VWS V14.00,2013-06-30 20:15:00,
2013-06-30 13:16:00,101.5,39.5,30.06,West,270,2.9,2.9,12,0.00,,,0.00,VWS V14.00,2013-06-30 20:16:00,
2013-06-30 13:17:00,101.8,39.8,30.06,West,270,3.6,3.6,12,0.00,,,0.00,VWS V14.00,2013-06-30 20:17:00,
2013-06-30 13:18:00,102.9,40.6,30.06,West,270,1.3,3.6,12,0.00,,,0.00,VWS V14.00,2013-06-30 20:18:00,
2013-06-30 13:19:00,102.9,40.6,30.06,NNW,338,2.7,2.9,12,0.00,,,0.00,VWS V14.00,2013-06-30 20:19:00,
2013-06-30 13:20:00,102.6,33.0,30.06,NNE,22,4.7,4.7,9,0.00,,,0.00,VWS V14.00,2013-06-30 20:20:00,
2013-06-30 13:21:00,102.6,33.0,30.06,North,0,1.6,4.7,9,0.00,,,0.00,VWS V14.00,2013-06-30 20:21:00,
2013-06-30 13:22:00,102.6,33.0,30.06,West,270,3.6,3.6,9,0.00,,,0.00,VWS V14.00,2013-06-30 20:22:00,
2013-06-30 13:23:00,102.6,33.0,30.06,NNE,22,3.4,3.6,9,0.00,,,0.00,VWS V14.00,2013-06-30 20:23:00,
2013-06-30 13:24:00,101.5,34.9,30.06,ENE,68,1.6,3.4,10,0.00,,,0.00,VWS V14.00,2013-06-30 20:24:00,
2013-06-30 13:25:00,101.7,35.0,30.06,WNW,292,3.4,3.4,10,0.00,,,0.00,VWS V14.00,2013-06-30 20:25:00,
2013-06-30 13:26:00,101.7,35.0,30.06,NNW,338,0.0,3.4,10,0.00,,,0.00,VWS V14.00,2013-06-30 20:26:00,
2013-06-30 13:27:00,102.4,32.9,30.06,NNW,338,0.0,0.0,9,0.00,,,0.00,VWS V14.00,2013-06-30 20:27:00,
2013-06-30 13:28:00,102.4,32.9,30.06,NW,315,2.5,2.5,9,0.00,,,0.00,VWS V14.00,2013-06-30 20:28:00,
2013-06-30 13:29:00,102.2,32.8,30.06,North,0,4.0,4.0,9,0.00,,,0.00,VWS V14.00,2013-06-30 20:29:00,
2013-06-30 13:30:00,102.6,33.0,30.06,NNW,338,3.4,3.4,9,0.00,,,0.00,VWS V14.00,2013-06-30 20:30:00,
2013-06-30 13:31:00,102.6,33.0,30.06,NNW,338,3.4,3.4,9,0.00,,,0.00,VWS V14.00,2013-06-30 20:31:00,
2013-06-30 13:32:00,102.6,33.0,30.06,WNW,292,2.7,3.4,9,0.00,,,0.00,VWS V14.00,2013-06-30 20:32:00,
2013-06-30 13:33:00,102.6,33.0,30.06,WNW,292,3.4,3.4,9,0.00,,,0.00,VWS V14.00,2013-06-30 20:33:00,
2013-06-30 13:34:00,102.7,33.2,30.06,WNW,292,2.7,3.4,9,0.00,,,0.00,VWS V14.00,2013-06-30 20:34:00,
2013-06-30 13:35:00,102.9,33.3,30.06,West,270,2.5,3.6,9,0.00,,,0.00,VWS V14.00,2013-06-30 20:35:00,
2013-06-30 13:36:00,102.9,33.3,30.06,West,270,2.5,3.6,9,0.00,,,0.00,VWS V14.00,2013-06-30 20:36:00,
2013-06-30 13:37:00,102.9,33.3,30.06,West,270,2.5,2.5,9,0.00,,,0.00,VWS V14.00,2013-06-30 20:37:00,
2013-06-30 13:38:00,103.6,33.8,30.06,NW,315,3.4,3.4,9,0.00,,,0.00,VWS V14.00,2013-06-30 20:38:00,
2013-06-30 13:39:00,103.6,33.8,30.06,WNW,292,1.6,3.4,9,0.00,,,0.00,VWS V14.00,2013-06-30 20:39:00,
2013-06-30 13:40:00,103.6,33.8,30.06,NW,315,3.1,3.1,9,0.00,,,0.00,VWS V14.00,2013-06-30 20:40:00,
2013-06-30 13:41:00,103.6,33.8,30.06,NW,315,3.1,3.1,9,0.00,,,0.00,VWS V14.00,2013-06-30 20:41:00,
2013-06-30 13:42:00,103.6,33.8,30.06,NNE,22,6.0,6.0,9,0.00,,,0.00,VWS V14.00,2013-06-30 20:42:00,
2013-06-30 13:43:00,103.6,33.8,30.06,NW,315,1.6,6.0,9,0.00,,,0.00,VWS V14.00,2013-06-30 20:43:00,
2013-06-30 13:44:00,103.6,33.8,30.06,WSW,248,3.4,3.4,9,0.00,,,0.00,VWS V14.00,2013-06-30 20:44:00,
2013-06-30 13:45:00,103.1,40.7,30.06,WNW,292,2.9,2.9,12,0.00,,,0.00,VWS V14.00,2013-06-30 20:45:00,
2013-06-30 13:46:00,103.1,40.7,30.06,WNW,292,2.9,2.9,12,0.00,,,0.00,VWS V14.00,2013-06-30 20:46:00,
2013-06-30 13:47:00,102.7,40.5,30.06,West,270,1.1,2.9,12,0.00,,,0.00,VWS V14.00,2013-06-30 20:47:00,
2013-06-30 13:48:00,102.7,40.5,30.06,WSW,248,1.6,1.6,12,0.00,,,0.00,VWS V14.00,2013-06-30 20:48:00,
2013-06-30 13:49:00,102.7,40.5,30.06,WNW,292,2.0,2.0,12,0.00,,,0.00,VWS V14.00,2013-06-30 20:49:00,
2013-06-30 13:50:00,102.7,40.5,30.06,WNW,292,1.3,3.1,12,0.00,,,0.00,VWS V14.00,2013-06-30 20:50:00,
2013-06-30 13:51:00,102.7,40.5,30.06,WNW,292,1.3,3.1,12,0.00,,,0.00,VWS V14.00,2013-06-30 20:51:00,
2013-06-30 13:52:00,103.5,41.0,30.06,West,270,2.9,2.9,12,0.00,,,0.00,VWS V14.00,2013-06-30 20:52:00,
2013-06-30 13:53:00,103.5,41.0,30.06,NNW,338,3.4,3.4,12,0.00,,,0.00,VWS V14.00,2013-06-30 20:53:00,
2013-06-30 13:54:00,103.3,40.9,30.06,North,0,2.9,3.4,12,0.00,,,0.00,VWS V14.00,2013-06-30 20:54:00,
2013-06-30 13:55:00,103.1,40.7,30.06,North,0,2.9,2.9,12,0.00,,,0.00,VWS V14.00,2013-06-30 20:55:00,
2013-06-30 13:56:00,103.1,40.7,30.06,North,0,2.9,2.9,12,0.00,,,0.00,VWS V14.00,2013-06-30 20:56:00,
2013-06-30 13:57:00,102.7,40.5,30.06,WNW,292,3.4,3.6,12,0.00,,,0.00,VWS V14.00,2013-06-30 20:57:00,
2013-06-30 13:58:00,102.7,40.5,30.06,NE,45,2.5,3.4,12,0.00,,,0.00,VWS V14.00,2013-06-30 20:58:00,
2013-06-30 13:59:00,103.1,40.7,30.06,NW,315,2.5,2.5,12,0.00,,,0.00,VWS V14.00,2013-06-30 20:59:00,
2013-06-30 14:00:00,103.3,40.9,30.06,WNW,292,2.5,2.5,12,0.00,,,0.00,VWS V14.00,2013-06-30 21:00:00,
2013-06-30 14:01:00,103.3,40.9,30.06,WNW,292,2.5,2.5,12,0.00,,,0.00,VWS V14.00,2013-06-30 21:01:00,
2013-06-30 14:02:00,103.3,40.9,30.06,West,270,3.4,3.4,12,0.00,,,0.00,VWS V14.00,2013-06-30 21:02:00,
2013-06-30 14:03:00,102.7,44.5,30.06,West,270,2.2,3.4,14,0.00,,,0.00,VWS V14.00,2013-06-30 21:03:00,
2013-06-30 14:04:00,103.6,41.1,30.06,WSW,248,2.9,2.9,12,0.00,,,0.00,VWS V14.00,2013-06-30 21:04:00,
2013-06-30 14:05:00,104.0,41.4,30.06,West,270,1.6,1.6,12,0.00,,,0.00,VWS V14.00,2013-06-30 21:05:00,
2013-06-30 14:06:00,104.0,41.4,30.06,West,270,1.6,1.6,12,0.00,,,0.00,VWS V14.00,2013-06-30 21:06:00,
2013-06-30 14:07:00,104.0,41.4,30.06,WSW,248,0.0,1.6,12,0.00,,,0.00,VWS V14.00,2013-06-30 21:07:00,
2013-06-30 14:08:00,103.8,45.3,30.06,NW,315,4.0,4.0,14,0.00,,,0.00,VWS V14.00,2013-06-30 21:08:00,
2013-06-30 14:09:00,103.8,45.3,30.06,WNW,292,2.0,4.0,14,0.00,,,0.00,VWS V14.00,2013-06-30 21:09:00,
2013-06-30 14:10:00,104.0,45.4,30.06,NNE,22,1.6,2.0,14,0.00,,,0.00,VWS V14.00,2013-06-30 21:10:00,
2013-06-30 14:11:00,103.8,45.3,30.06,West,270,2.0,2.0,14,0.00,,,0.00,VWS V14.00,2013-06-30 21:11:00,
2013-06-30 14:12:00,103.8,45.3,30.06,WNW,292,4.9,4.9,14,0.00,,,0.00,VWS V14.00,2013-06-30 21:12:00,
2013-06-30 14:13:00,103.1,46.6,30.06,NE,45,2.0,4.9,15,0.00,,,0.00,VWS V14.00,2013-06-30 21:13:00,
2013-06-30 14:14:00,103.1,46.6,30.06,WNW,292,2.2,2.2,15,0.00,,,0.00,VWS V14.00,2013-06-30 21:14:00,
2013-06-30 14:15:00,103.5,45.0,30.06,WSW,248,1.3,2.2,14,0.00,,,0.00,VWS V14.00,2013-06-30 21:15:00,
2013-06-30 14:16:00,103.5,45.0,30.06,WNW,292,3.6,3.6,14,0.00,,,0.00,VWS V14.00,2013-06-30 21:16:00,
2013-06-30 14:17:00,103.1,44.7,30.06,NNE,22,3.8,3.8,14,0.00,,,0.00,VWS V14.00,2013-06-30 21:17:00,
2013-06-30 14:18:00,101.8,45.6,30.06,WNW,292,4.0,4.0,15,0.00,,,0.00,VWS V14.00,2013-06-30 21:18:00,
2013-06-30 14:19:00,101.8,45.6,30.06,WNW,292,4.0,4.0,15,0.00,,,0.00,VWS V14.00,2013-06-30 21:19:00,
2013-06-30 14:20:00,101.8,45.6,30.06,NNE,22,1.6,4.0,15,0.00,,,0.00,VWS V14.00,2013-06-30 21:20:00,
2013-06-30 14:21:00,101.8,45.6,30.06,WNW,292,2.7,2.7,15,0.00,,,0.00,VWS V14.00,2013-06-30 21:21:00,
2013-06-30 14:22:00,102.0,45.7,30.06,WNW,292,2.7,2.7,15,0.00,,,0.00,VWS V14.00,2013-06-30 21:22:00,
2013-06-30 14:23:00,102.0,45.7,30.06,NNW,338,3.1,3.1,15,0.00,,,0.00,VWS V14.00,2013-06-30 21:23:00,
2013-06-30 14:24:00,101.8,45.6,30.06,NNW,338,4.3,4.3,15,0.00,,,0.00,VWS V14.00,2013-06-30 21:24:00,
2013-06-30 14:25:00,101.3,45.1,30.06,NNE,22,3.8,4.3,15,0.00,,,0.00,VWS V14.00,2013-06-30 21:25:00,
2013-06-30 14:26:00,101.3,45.1,30.06,WNW,292,3.4,3.4,15,0.00,,,0.00,VWS V14.00,2013-06-30 21:26:00,
2013-06-30 14:27:00,101.3,45.1,30.06,NW,315,3.8,3.8,15,0.00,,,0.00,VWS V14.00,2013-06-30 21:27:00,
2013-06-30 14:28:00,101.3,45.1,30.06,NNE,22,4.9,4.9,15,0.00,,,0.00,VWS V14.00,2013-06-30 21:28:00,
2013-06-30 14:29:00,101.3,45.1,30.06,West,270,4.0,4.9,15,0.00,,,0.00,VWS V14.00,2013-06-30 21:29:00,
2013-06-30 14:30:00,101.3,45.1,30.06,West,270,4.0,4.0,15,0.00,,,0.00,VWS V14.00,2013-06-30 21:30:00,
2013-06-30 14:31:00,101.3,45.1,30.06,West,270,4.0,4.0,15,0.00,,,0.00,VWS V14.00,2013-06-30 21:31:00,
2013-06-30 14:32:00,101.3,45.1,30.06,NW,315,2.7,4.0,15,0.00,,,0.00,VWS V14.00,2013-06-30 21:32:00,
2013-06-30 14:33:00,101.1,45.0,30.06,WNW,292,4.0,4.0,15,0.00,,,0.00,VWS V14.00,2013-06-30 21:33:00,
2013-06-30 14:34:00,100.8,44.7,30.06,NW,315,3.6,4.0,15,0.00,,,0.00,VWS V14.00,2013-06-30 21:34:00,
2013-06-30 14:35:00,100.8,44.7,30.06,WSW,248,4.0,4.0,15,0.00,,,0.00,VWS V14.00,2013-06-30 21:35:00,
2013-06-30 14:36:00,100.8,44.7,30.06,WNW,292,4.7,4.7,15,0.00,,,0.00,VWS V14.00,2013-06-30 21:36:00,
2013-06-30 14:37:00,100.8,44.7,30.06,WNW,292,4.7,4.7,15,0.00,,,0.00,VWS V14.00,2013-06-30 21:37:00,
2013-06-30 14:38:00,100.9,46.5,30.06,NNE,22,3.8,4.7,16,0.00,,,0.00,VWS V14.00,2013-06-30 21:38:00,
2013-06-30 14:39:00,100.9,46.5,30.06,WNW,292,2.9,3.8,16,0.00,,,0.00,VWS V14.00,2013-06-30 21:39:00,
2013-06-30 14:40:00,101.5,45.3,30.06,NNW,338,1.3,2.9,15,0.00,,,0.00,VWS V14.00,2013-06-30 21:40:00,
2013-06-30 14:41:00,101.5,47.0,30.06,North,0,4.3,4.3,16,0.00,,,0.00,VWS V14.00,2013-06-30 21:41:00,
2013-06-30 14:42:00,101.5,47.0,30.06,NW,315,4.3,4.3,16,0.00,,,0.00,VWS V14.00,2013-06-30 21:42:00,
2013-06-30 14:43:00,100.8,46.4,30.06,WNW,292,2.5,4.3,16,0.00,,,0.00,VWS V14.00,2013-06-30 21:43:00,
2013-06-30 14:44:00,100.8,46.4,30.06,NW,315,4.5,4.5,16,0.00,,,0.00,VWS V14.00,2013-06-30 21:44:00,
2013-06-30 14:45:00,100.4,46.1,30.06,WNW,292,1.6,4.5,16,0.00,,,0.00,VWS V14.00,2013-06-30 21:45:00,
2013-06-30 14:46:00,100.4,46.1,30.06,NW,315,3.1,3.1,16,0.00,,,0.00,VWS V14.00,2013-06-30 21:46:00,
2013-06-30 14:47:00,100.4,46.1,30.06,North,0,3.8,3.8,16,0.00,,,0.00,VWS V14.00,2013-06-30 21:47:00,
2013-06-30 14:48:00,99.5,45.4,30.06,NW,315,4.7,4.7,16,0.00,,,0.00,VWS V14.00,2013-06-30 21:48:00,
2013-06-30 14:49:00,99.5,45.4,30.03,WNW,292,4.7,4.7,16,0.00,,,0.00,VWS V14.00,2013-06-30 21:49:00,
2013-06-30 14:50:00,99.0,45.0,30.03,WNW,292,5.4,5.4,16,0.00,,,0.00,VWS V14.00,2013-06-30 21:50:00,
2013-06-30 14:51:00,99.0,45.0,30.03,NNW,338,2.9,4.9,16,0.00,,,0.00,VWS V14.00,2013-06-30 21:51:00,
2013-06-30 14:52:00,99.5,45.4,30.03,NNW,338,2.9,4.9,16,0.00,,,0.00,VWS V14.00,2013-06-30 21:52:00,
2013-06-30 14:53:00,99.5,45.4,30.03,WSW,248,4.3,4.9,16,0.00,,,0.00,VWS V14.00,2013-06-30 21:53:00,
2013-06-30 14:54:00,99.7,45.5,30.03,North,0,3.4,4.3,16,0.00,,,0.00,VWS V14.00,2013-06-30 21:54:00,
2013-06-30 14:55:00,99.7,45.5,30.03,NNE,22,3.4,3.4,16,0.00,,,0.00,VWS V14.00,2013-06-30 21:55:00,
2013-06-30 14:56:00,99.3,45.3,30.03,NW,315,3.6,3.6,16,0.00,,,0.00,VWS V14.00,2013-06-30 21:56:00,
2013-06-30 14:57:00,99.0,45.0,30.03,East,90,3.1,3.6,16,0.00,,,0.00,VWS V14.00,2013-06-30 21:57:00,
2013-06-30 14:58:00,99.0,45.0,30.03,North,0,3.1,3.1,16,0.00,,,0.00,VWS V14.00,2013-06-30 21:58:00,
2013-06-30 14:59:00,99.1,45.1,30.03,NNE,22,2.7,3.1,16,0.00,,,0.00,VWS V14.00,2013-06-30 21:59:00,
2013-06-30 15:00:00,99.1,45.1,30.03,North,0,5.6,5.6,16,0.00,,,0.00,VWS V14.00,2013-06-30 22:00:00,
2013-06-30 15:01:00,99.3,45.3,30.03,West,270,2.5,2.5,16,0.00,,,0.00,VWS V14.00,2013-06-30 22:01:00,
2013-06-30 15:02:00,99.3,45.3,30.03,WNW,292,3.1,3.1,16,0.00,,,0.00,VWS V14.00,2013-06-30 22:02:00,
2013-06-30 15:03:00,99.3,45.3,30.03,West,270,0.0,3.1,16,0.00,,,0.00,VWS V14.00,2013-06-30 22:03:00,
2013-06-30 15:04:00,99.7,45.5,30.03,NW,315,2.0,2.0,16,0.00,,,0.00,VWS V14.00,2013-06-30 22:04:00,
2013-06-30 15:05:00,99.7,45.5,30.03,West,270,4.0,4.0,16,0.00,,,0.00,VWS V14.00,2013-06-30 22:05:00,
2013-06-30 15:06:00,99.7,45.5,30.03,WSW,248,5.8,5.8,16,0.00,,,0.00,VWS V14.00,2013-06-30 22:06:00,
2013-06-30 15:07:00,99.7,45.5,30.03,NW,315,2.0,5.8,16,0.00,,,0.00,VWS V14.00,2013-06-30 22:07:00,
2013-06-30 15:08:00,99.3,45.3,30.03,NW,315,3.6,3.6,16,0.00,,,0.00,VWS V14.00,2013-06-30 22:08:00,
2013-06-30 15:09:00,99.3,45.3,30.03,NW,315,2.5,3.6,16,0.00,,,0.00,VWS V14.00,2013-06-30 22:09:00,
2013-06-30 15:10:00,99.0,45.0,30.03,NNW,338,3.8,3.8,16,0.00,,,0.00,VWS V14.00,2013-06-30 22:10:00,
2013-06-30 15:11:00,98.6,44.7,30.03,NNE,22,3.8,3.8,16,0.00,,,0.00,VWS V14.00,2013-06-30 22:11:00,
2013-06-30 15:12:00,98.6,44.7,30.03,WNW,292,3.6,3.8,16,0.00,,,0.00,VWS V14.00,2013-06-30 22:12:00,
2013-06-30 15:13:00,98.6,44.7,30.03,WNW,292,3.6,3.6,16,0.00,,,0.00,VWS V14.00,2013-06-30 22:13:00,
2013-06-30 15:14:00,98.6,44.7,30.03,NNW,338,2.9,3.6,16,0.00,,,0.00,VWS V14.00,2013-06-30 22:14:00,
2013-06-30 15:15:00,99.1,45.1,30.03,NW,315,2.9,2.9,16,0.00,,,0.00,VWS V14.00,2013-06-30 22:15:00,
2013-06-30 15:16:00,99.1,45.1,30.03,NNW,338,3.6,3.8,16,0.00,,,0.00,VWS V14.00,2013-06-30 22:16:00,
2013-06-30 15:17:00,99.1,45.1,30.03,NNW,338,3.6,3.8,16,0.00,,,0.00,VWS V14.00,2013-06-30 22:17:00,
2013-06-30 15:18:00,99.1,45.1,30.03,West,270,2.9,3.6,16,0.00,,,0.00,VWS V14.00,2013-06-30 22:18:00,
2013-06-30 15:19:00,99.1,45.1,30.03,North,0,4.0,4.0,16,0.00,,,0.00,VWS V14.00,2013-06-30 22:19:00,
2013-06-30 15:20:00,99.1,45.1,30.03,West,270,6.0,6.0,16,0.00,,,0.00,VWS V14.00,2013-06-30 22:20:00,
2013-06-30 15:21:00,99.1,45.1,30.03,NE,45,4.3,4.3,16,0.00,,,0.00,VWS V14.00,2013-06-30 22:21:00,
2013-06-30 15:22:00,99.1,45.1,30.03,North,0,2.9,4.3,16,0.00,,,0.00,VWS V14.00,2013-06-30 22:22:00,
2013-06-30 15:23:00,99.1,45.1,30.03,WNW,292,5.8,5.8,16,0.00,,,0.00,VWS V14.00,2013-06-30 22:23:00,
2013-06-30 15:24:00,99.1,45.1,30.03,NNE,22,3.1,5.8,16,0.00,,,0.00,VWS V14.00,2013-06-30 22:24:00,
2013-06-30 15:25:00,99.1,45.1,30.03,NW,315,3.4,3.4,16,0.00,,,0.00,VWS V14.00,2013-06-30 22:25:00,
2013-06-30 15:26:00,99.1,45.1,30.03,West,270,4.3,4.3,16,0.00,,,0.00,VWS V14.00,2013-06-30 22:26:00,
2013-06-30 15:27:00,99.1,45.1,30.03,North,0,3.1,4.3,16,0.00,,,0.00,VWS V14.00,2013-06-30 22:27:00,
2013-06-30 15:28:00,99.1,45.1,30.03,NNW,338,2.5,3.1,16,0.00,,,0.00,VWS V14.00,2013-06-30 22:28:00,
2013-06-30 15:29:00,99.1,45.1,30.03,WNW,292,2.5,2.5,16,0.00,,,0.00,VWS V14.00,2013-06-30 22:29:00,
2013-06-30 15:30:00,99.1,45.1,30.03,NW,315,2.7,2.7,16,0.00,,,0.00,VWS V14.00,2013-06-30 22:30:00,
2013-06-30 15:31:00,97.9,45.7,30.03,WNW,292,4.9,4.9,17,0.00,,,0.00,VWS V14.00,2013-06-30 22:31:00,
2013-06-30 15:32:00,97.9,45.7,30.03,NW,315,3.6,4.9,17,0.00,,,0.00,VWS V14.00,2013-06-30 22:32:00,
2013-06-30 15:33:00,97.9,45.7,30.03,West,270,4.0,4.0,17,0.00,,,0.00,VWS V14.00,2013-06-30 22:33:00,
2013-06-30 15:34:00,97.9,45.7,30.03,WNW,292,5.4,5.4,17,0.00,,,0.00,VWS V14.00,2013-06-30 22:34:00,
2013-06-30 15:35:00,97.9,45.7,30.03,WNW,292,2.7,5.4,17,0.00,,,0.00,VWS V14.00,2013-06-30 22:35:00,
2013-06-30 15:36:00,97.9,45.7,30.03,West,270,2.7,2.7,17,0.00,,,0.00,VWS V14.00,2013-06-30 22:36:00,
2013-06-30 15:37:00,97.9,45.7,30.03,NNE,22,2.9,2.9,17,0.00,,,0.00,VWS V14.00,2013-06-30 22:37:00,
2013-06-30 15:38:00,97.5,45.4,30.03,WNW,292,3.6,3.6,17,0.00,,,0.00,VWS V14.00,2013-06-30 22:38:00,
2013-06-30 15:39:00,97.5,45.4,30.03,West,270,4.9,4.9,17,0.00,,,0.00,VWS V14.00,2013-06-30 22:39:00,
2013-06-30 15:40:00,97.0,45.0,30.03,West,270,3.6,4.9,17,0.00,,,0.00,VWS V14.00,2013-06-30 22:40:00,
2013-06-30 15:41:00,97.3,45.3,30.03,WSW,248,2.5,2.5,17,0.00,,,0.00,VWS V14.00,2013-06-30 22:41:00,
2013-06-30 15:42:00,97.3,45.3,30.03,NNE,22,1.3,2.5,17,0.00,,,0.00,VWS V14.00,2013-06-30 22:42:00,
2013-06-30 15:43:00,97.7,45.6,30.03,West,270,3.1,3.1,17,0.00,,,0.00,VWS V14.00,2013-06-30 22:43:00,
2013-06-30 15:44:00,97.7,45.6,30.03,NW,315,2.0,3.1,17,0.00,,,0.00,VWS V14.00,2013-06-30 22:44:00,
2013-06-30 15:45:00,97.5,45.4,30.03,West,270,2.7,2.7,17,0.00,,,0.00,VWS V14.00,2013-06-30 22:45:00,
2013-06-30 15:46:00,98.2,46.0,30.03,WNW,292,2.7,2.7,17,0.00,,,0.00,VWS V14.00,2013-06-30 22:46:00,
2013-06-30 15:47:00,98.2,46.0,30.03,WNW,292,2.7,2.7,17,0.00,,,0.00,VWS V14.00,2013-06-30 22:47:00,
2013-06-30 15:48:00,98.2,46.0,30.03,North,0,1.6,2.7,17,0.00,,,0.00,VWS V14.00,2013-06-30 22:48:00,
2013-06-30 15:49:00,98.2,46.0,30.03,North,0,1.6,1.6,17,0.00,,,0.00,VWS V14.00,2013-06-30 22:49:00,
2013-06-30 15:50:00,97.7,45.6,30.03,West,270,3.1,3.1,17,0.00,,,0.00,VWS V14.00,2013-06-30 22:50:00,
2013-06-30 15:51:00,97.7,45.6,30.03,West,270,1.6,1.6,17,0.00,,,0.00,VWS V14.00,2013-06-30 22:51:00,
2013-06-30 15:52:00,98.1,45.9,30.03,West,270,1.3,1.6,17,0.00,,,0.00,VWS V14.00,2013-06-30 22:52:00,
2013-06-30 15:53:00,98.1,45.9,30.03,NNE,22,1.6,1.6,17,0.00,,,0.00,VWS V14.00,2013-06-30 22:53:00,
2013-06-30 15:54:00,98.4,46.2,30.03,West,270,1.6,1.6,17,0.00,,,0.00,VWS V14.00,2013-06-30 22:54:00,
2013-06-30 15:55:00,98.4,46.2,30.03,West,270,2.9,2.9,17,0.00,,,0.00,VWS V14.00,2013-06-30 22:55:00,
2013-06-30 15:56:00,98.4,46.1,30.03,North,0,0.9,4.0,17,0.00,,,0.00,VWS V14.00,2013-06-30 22:56:00,
2013-06-30 15:57:00,98.2,46.0,30.03,North,0,0.9,4.0,17,0.00,,,0.00,VWS V14.00,2013-06-30 22:57:00,
2013-06-30 15:58:00,98.2,46.0,30.03,North,0,3.4,3.4,17,0.00,,,0.00,VWS V14.00,2013-06-30 22:58:00,
2013-06-30 15:59:00,97.5,45.4,30.03,NW,315,2.9,3.4,17,0.00,,,0.00,VWS V14.00,2013-06-30 22:59:00,
2013-06-30 16:00:00,97.5,45.4,30.03,West,270,1.6,2.9,17,0.00,,,0.00,VWS V14.00,2013-06-30 23:00:00,
2013-06-30 16:01:00,97.3,45.3,30.03,WNW,292,1.1,2.2,17,0.00,,,0.00,VWS V14.00,2013-06-30 23:01:00,
2013-06-30 16:02:00,97.3,45.3,30.03,WNW,292,1.1,2.2,17,0.00,,,0.00,VWS V14.00,2013-06-30 23:02:00,
2013-06-30 16:03:00,97.9,45.7,30.03,WSW,248,2.2,3.4,17,0.00,,,0.00,VWS V14.00,2013-06-30 23:03:00,
2013-06-30 16:04:00,97.9,45.7,30.03,West,270,2.2,2.2,17,0.00,,,0.00,VWS V14.00,2013-06-30 23:04:00,
2013-06-30 16:05:00,97.9,45.7,30.03,West,270,4.3,4.3,17,0.00,,,0.00,VWS V14.00,2013-06-30 23:05:00,
2013-06-30 16:06:00,97.9,45.7,30.03,WNW,292,0.9,0.9,17,0.00,,,0.00,VWS V14.00,2013-06-30 23:06:00,
2013-06-30 16:07:00,97.9,45.7,30.03,West,270,5.8,5.8,17,0.00,,,0.00,VWS V14.00,2013-06-30 23:07:00,
2013-06-30 16:08:00,97.2,43.5,30.03,NNW,338,2.9,5.8,16,0.00,,,0.00,VWS V14.00,2013-06-30 23:08:00,
2013-06-30 16:09:00,97.2,43.5,30.03,NW,315,2.0,2.9,16,0.00,,,0.00,VWS V14.00,2013-06-30 23:09:00,
2013-06-30 16:10:00,97.2,45.1,30.03,NW,315,2.9,2.9,17,0.00,,,0.00,VWS V14.00,2013-06-30 23:10:00,
2013-06-30 16:11:00,96.6,44.7,30.03,WSW,248,3.1,7.4,17,0.00,,,0.00,VWS V14.00,2013-06-30 23:11:00,
2013-06-30 16:12:00,96.6,44.7,30.03,WSW,248,3.1,7.4,17,0.00,,,0.00,VWS V14.00,2013-06-30 23:12:00,
2013-06-30 16:13:00,97.2,43.5,30.03,WNW,292,2.5,3.1,16,0.00,,,0.00,VWS V14.00,2013-06-30 23:13:00,
2013-06-30 16:14:00,97.2,43.5,30.03,WNW,292,3.8,3.8,16,0.00,,,0.00,VWS V14.00,2013-06-30 23:14:00,
2013-06-30 16:15:00,97.0,43.4,30.03,North,0,3.1,3.8,16,0.00,,,0.00,VWS V14.00,2013-06-30 23:15:00,
2013-06-30 16:16:00,97.0,43.4,30.03,West,270,0.9,3.8,16,0.00,,,0.00,VWS V14.00,2013-06-30 23:16:00,
2013-06-30 16:17:00,97.0,43.4,30.03,WNW,292,2.5,3.8,16,0.00,,,0.00,VWS V14.00,2013-06-30 23:17:00,
2013-06-30 16:18:00,97.0,43.4,30.03,WSW,248,3.4,3.4,16,0.00,,,0.00,VWS V14.00,2013-06-30 23:18:00,
2013-06-30 16:19:00,97.3,43.7,30.03,West,270,2.0,3.4,16,0.00,,,0.00,VWS V14.00,2013-06-30 23:19:00,
2013-06-30 16:20:00,97.2,43.5,30.03,SW,225,2.7,2.7,16,0.00,,,0.00,VWS V14.00,2013-06-30 23:20:00,
2013-06-30 16:21:00,97.0,43.4,30.03,WSW,248,2.7,2.7,16,0.00,,,0.00,VWS V14.00,2013-06-30 23:21:00,
2013-06-30 16:22:00,97.0,43.4,30.03,WNW,292,3.4,3.4,16,0.00,,,0.00,VWS V14.00,2013-06-30 23:22:00,
2013-06-30 16:23:00,97.0,43.4,30.03,NNW,338,4.7,4.7,16,0.00,,,0.00,VWS V14.00,2013-06-30 23:23:00,
2013-06-30 19:39:00,96.4,44.6,30.03,SSW,202,0.0,4.7,17,0.00,,,0.00,VWS V14.00,2013-07-01 02:39:00,
2013-06-30 19:40:00,79.9,45.7,30.03,SSW,202,0.0,0.0,30,0.00,,,0.00,VWS V14.00,2013-07-01 02:40:00,
2013-06-30 19:41:00,79.9,45.7,30.03,SSW,202,0.0,0.0,30,0.00,,,0.00,VWS V14.00,2013-07-01 02:41:00,
2013-06-30 19:42:00,79.5,45.4,30.03,SSW,202,0.0,0.0,30,0.00,,,0.00,VWS V14.00,2013-07-01 02:42:00,
2013-06-30 19:43:00,79.3,45.2,30.03,SSW,202,0.0,0.0,30,0.00,,,0.00,VWS V14.00,2013-07-01 02:43:00,
2013-06-30 19:44:00,79.3,45.2,30.03,SSW,202,0.0,0.0,30,0.00,,,0.00,VWS V14.00,2013-07-01 02:44:00,
2013-06-30 19:45:00,79.2,45.1,30.03,SSW,202,0.0,0.0,30,0.00,,,0.00,VWS V14.00,2013-07-01 02:45:00,
2013-06-30 19:46:00,79.2,45.1,30.03,SSW,202,0.0,0.0,30,0.00,,,0.00,VWS V14.00,2013-07-01 02:46:00,
2013-06-30 19:47:00,78.8,44.8,30.03,SSW,202,0.0,0.0,30,0.00,,,0.00,VWS V14.00,2013-07-01 02:47:00,
2013-06-30 19:48:00,78.8,44.8,30.03,SSW,202,0.0,0.0,30,0.00,,,0.00,VWS V14.00,2013-07-01 02:48:00,
2013-06-30 19:49:00,78.4,44.5,30.03,SSW,202,0.0,0.0,30,0.00,,,0.00,VWS V14.00,2013-07-01 02:49:00,
2013-06-30 19:50:00,78.4,44.5,30.03,SSW,202,0.0,0.0,30,0.00,,,0.00,VWS V14.00,2013-07-01 02:50:00,
2013-06-30 19:51:00,78.1,44.2,30.03,SSW,202,0.0,0.0,30,0.00,,,0.00,VWS V14.00,2013-07-01 02:51:00,
2013-06-30 19:52:00,77.9,44.0,30.03,SSW,202,0.0,0.0,30,0.00,,,0.00,VWS V14.00,2013-07-01 02:52:00,
2013-06-30 19:53:00,77.9,44.0,30.03,SSW,202,0.0,0.0,30,0.00,,,0.00,VWS V14.00,2013-07-01 02:53:00,
2013-06-30 19:54:00,77.4,42.7,30.03,SSW,202,0.0,0.0,29,0.00,,,0.00,VWS V14.00,2013-07-01 02:54:00,
2013-06-30 19:55:00,77.4,42.7,30.03,SSW,202,0.0,0.0,29,0.00,,,0.00,VWS V14.00,2013-07-01 02:55:00,
2013-06-30 19:56:00,77.4,42.7,30.03,SSW,202,0.0,0.0,29,0.00,,,0.00,VWS V14.00,2013-07-01 02:56:00,
2013-06-30 19:57:00,77.4,42.7,30.03,SSW,202,0.0,0.0,29,0.00,,,0.00,VWS V14.00,2013-07-01 02:57:00,
2013-06-30 19:58:00,77.0,42.3,30.03,SSW,202,0.0,0.0,29,0.00,,,0.00,VWS V14.00,2013-07-01 02:58:00,
2013-06-30 19:59:00,76.8,42.2,30.03,SSW,202,0.0,0.0,29,0.00,,,0.00,VWS V14.00,2013-07-01 02:59:00,
2013-06-30 20:00:00,76.8,42.2,30.03,SSW,202,0.0,0.0,29,0.00,,,0.00,VWS V14.00,2013-07-01 03:00:00,
2013-06-30 20:01:00,76.5,41.9,30.03,ESE,112,0.0,0.0,29,0.00,,,0.00,VWS V14.00,2013-07-01 03:01:00,
2013-06-30 20:02:00,76.5,41.9,30.03,ESE,112,0.0,0.0,29,0.00,,,0.00,VWS V14.00,2013-07-01 03:02:00,
2013-06-30 20:03:00,76.1,41.6,30.03,ESE,112,0.0,0.0,29,0.00,,,0.00,VWS V14.00,2013-07-01 03:03:00,
2013-06-30 20:04:00,75.9,41.4,30.03,ESE,112,0.0,0.0,29,0.00,,,0.00,VWS V14.00,2013-07-01 03:04:00,
2013-06-30 20:05:00,75.9,41.4,30.03,ESE,112,0.0,0.0,29,0.00,,,0.00,VWS V14.00,2013-07-01 03:05:00,
2013-06-30 20:06:00,75.7,41.3,30.03,SE,135,0.0,0.0,29,0.00,,,0.00,VWS V14.00,2013-07-01 03:06:00,
2013-06-30 20:07:00,75.7,41.3,30.03,SE,135,0.0,0.0,29,0.00,,,0.00,VWS V14.00,2013-07-01 03:07:00,
2013-06-30 20:08:00,75.4,41.0,30.03,SSE,158,0.0,0.0,29,0.00,,,0.00,VWS V14.00,2013-07-01 03:08:00,
2013-06-30 20:09:00,75.6,41.1,30.03,ESE,112,0.0,0.0,29,0.00,,,0.00,VWS V14.00,2013-07-01 03:09:00,
2013-06-30 20:10:00,75.6,41.1,30.03,ESE,112,0.0,0.0,29,0.00,,,0.00,VWS V14.00,2013-07-01 03:10:00,
2013-06-30 20:11:00,75.6,41.1,30.03,SSE,158,0.0,0.0,29,0.00,,,0.00,VWS V14.00,2013-07-01 03:11:00,
2013-06-30 20:12:00,75.4,41.0,30.03,SSE,158,0.0,0.0,29,0.00,,,0.00,VWS V14.00,2013-07-01 03:12:00,
2013-06-30 20:13:00,75.4,41.0,30.03,SSE,158,0.0,0.0,29,0.00,,,0.00,VWS V14.00,2013-07-01 03:13:00,
2013-06-30 20:14:00,75.2,39.9,30.03,SSE,158,0.0,0.0,28,0.00,,,0.00,VWS V14.00,2013-07-01 03:14:00,
2013-06-30 20:15:00,74.8,40.5,30.03,SE,135,0.0,0.0,29,0.00,,,0.00,VWS V14.00,2013-07-01 03:15:00,
2013-06-30 20:16:00,74.8,40.5,30.03,ESE,112,0.0,0.0,29,0.00,,,0.00,VWS V14.00,2013-07-01 03:16:00,
2013-06-30 20:17:00,74.7,40.3,30.03,ESE,112,0.0,0.0,29,0.00,,,0.00,VWS V14.00,2013-07-01 03:17:00,
2013-06-30 20:18:00,74.7,40.3,30.03,SSE,158,0.0,0.0,29,0.00,,,0.00,VWS V14.00,2013-07-01 03:18:00,
2013-06-30 20:19:00,74.3,40.0,30.03,ESE,112,0.0,0.0,29,0.00,,,0.00,VWS V14.00,2013-07-01 03:19:00,
2013-06-30 20:20:00,74.3,40.0,30.03,ESE,112,0.0,0.0,29,0.00,,,0.00,VWS V14.00,2013-07-01 03:20:00,
2013-06-30 20:21:00,74.1,39.9,30.03,SE,135,0.0,0.0,29,0.00,,,0.00,VWS V14.00,2013-07-01 03:21:00,
2013-06-30 20:22:00,73.9,39.7,30.03,ESE,112,0.0,0.0,29,0.00,,,0.00,VWS V14.00,2013-07-01 03:22:00,
2013-06-30 20:23:00,73.9,39.7,30.03,SSE,158,0.0,0.0,29,0.00,,,0.00,VWS V14.00,2013-07-01 03:23:00,
2013-06-30 20:24:00,73.8,39.5,30.03,SE,135,0.0,0.0,29,0.00,,,0.00,VWS V14.00,2013-07-01 03:24:00,
2013-06-30 20:25:00,73.8,39.5,30.03,SE,135,0.0,0.0,29,0.00,,,0.00,VWS V14.00,2013-07-01 03:25:00,
2013-06-30 20:26:00,73.4,39.2,30.03,SE,135,0.0,0.0,29,0.00,,,0.00,VWS V14.00,2013-07-01 03:26:00,
2013-06-30 20:27:00,73.4,39.2,30.03,SE,135,0.0,0.0,29,0.00,,,0.00,VWS V14.00,2013-07-01 03:27:00,
2013-06-30 20:28:00,73.4,39.2,30.03,SE,135,0.0,0.0,29,0.00,,,0.00,VWS V14.00,2013-07-01 03:28:00,
2013-06-30 20:29:00,73.2,39.1,30.03,ESE,112,0.0,0.0,29,0.00,,,0.00,VWS V14.00,2013-07-01 03:29:00,
2013-06-30 20:30:00,73.2,39.1,30.03,SSE,158,0.0,0.0,29,0.00,,,0.00,VWS V14.00,2013-07-01 03:30:00,
2013-06-30 20:31:00,73.0,39.8,30.03,SSE,158,0.0,0.0,30,0.00,,,0.00,VWS V14.00,2013-07-01 03:31:00,
2013-06-30 20:32:00,73.0,39.8,30.03,South,180,0.0,0.0,30,0.00,,,0.00,VWS V14.00,2013-07-01 03:32:00,
2013-06-30 20:33:00,72.9,39.7,30.03,ESE,112,0.0,0.0,30,0.00,,,0.00,VWS V14.00,2013-07-01 03:33:00,
2013-06-30 20:34:00,72.7,39.5,30.03,ESE,112,0.0,0.0,30,0.00,,,0.00,VWS V14.00,2013-07-01 03:34:00,
2013-06-30 20:35:00,72.7,39.5,30.03,ESE,112,0.0,0.0,30,0.00,,,0.00,VWS V14.00,2013-07-01 03:35:00,
2013-06-30 20:36:00,72.7,39.5,30.03,SE,135,0.0,0.0,30,0.00,,,0.00,VWS V14.00,2013-07-01 03:36:00,
2013-06-30 20:37:00,72.7,39.5,30.03,ESE,112,0.0,0.0,30,0.00,,,0.00,VWS V14.00,2013-07-01 03:37:00,
2013-06-30 20:38:00,72.7,39.5,30.03,ESE,112,0.0,0.0,30,0.00,,,0.00,VWS V14.00,2013-07-01 03:38:00,
2013-06-30 20:39:00,72.7,39.5,30.03,ESE,112,0.0,0.0,30,0.00,,,0.00,VWS V14.00,2013-07-01 03:39:00,
2013-06-30 20:40:00,72.7,39.5,30.03,ESE,112,0.0,0.0,30,0.00,,,0.00,VWS V14.00,2013-07-01 03:40:00,
2013-06-30 20:41:00,72.7,39.5,30.03,ESE,112,0.0,0.0,30,0.00,,,0.00,VWS V14.00,2013-07-01 03:41:00,
2013-06-30 20:42:00,72.7,39.5,30.03,SSW,202,0.0,0.0,30,0.00,,,0.00,VWS V14.00,2013-07-01 03:42:00,
2013-06-30 20:43:00,72.7,39.5,30.03,SSW,202,0.0,0.0,30,0.00,,,0.00,VWS V14.00,2013-07-01 03:43:00,
2013-06-30 20:44:00,72.7,39.5,30.03,SSW,202,0.0,0.0,30,0.00,,,0.00,VWS V14.00,2013-07-01 03:44:00,
2013-06-30 20:45:00,72.7,39.5,30.03,SSW,202,0.0,0.0,30,0.00,,,0.00,VWS V14.00,2013-07-01 03:45:00,
2013-06-30 20:46:00,72.3,39.2,30.03,SSW,202,0.0,0.0,30,0.00,,,0.00,VWS V14.00,2013-07-01 03:46:00,
2013-06-30 20:47:00,72.3,39.2,30.03,East,90,0.0,0.0,30,0.00,,,0.00,VWS V14.00,2013-07-01 03:47:00,
2013-06-30 20:48:00,72.1,39.0,30.03,ESE,112,0.0,0.0,30,0.00,,,0.00,VWS V14.00,2013-07-01 03:48:00,
2013-06-30 20:49:00,72.1,39.0,30.03,South,180,0.0,0.0,30,0.00,,,0.00,VWS V14.00,2013-07-01 03:49:00,
2013-06-30 20:50:00,72.1,39.0,30.03,South,180,0.0,0.0,30,0.00,,,0.00,VWS V14.00,2013-07-01 03:50:00,
2013-06-30 20:51:00,72.1,39.0,30.03,ESE,112,0.0,0.0,30,0.00,,,0.00,VWS V14.00,2013-07-01 03:51:00,
2013-06-30 20:52:00,71.8,38.7,30.03,ESE,112,0.0,0.0,30,0.00,,,0.00,VWS V14.00,2013-07-01 03:52:00,
2013-06-30 20:53:00,71.8,39.5,30.03,SE,135,0.0,0.0,31,0.00,,,0.00,VWS V14.00,2013-07-01 03:53:00,
2013-06-30 20:54:00,71.4,39.2,30.03,South,180,0.0,0.0,31,0.00,,,0.00,VWS V14.00,2013-07-01 03:54:00,
2013-06-30 20:55:00,71.4,39.2,30.03,South,180,0.0,0.0,31,0.00,,,0.00,VWS V14.00,2013-07-01 03:55:00,
2013-06-30 20:56:00,71.4,39.2,30.03,South,180,0.0,0.0,31,0.00,,,0.00,VWS V14.00,2013-07-01 03:56:00,
2013-06-30 20:57:00,71.2,39.1,30.03,South,180,0.0,0.0,31,0.00,,,0.00,VWS V14.00,2013-07-01 03:57:00,
2013-06-30 20:58:00,71.2,39.1,30.03,South,180,0.0,0.0,31,0.00,,,0.00,VWS V14.00,2013-07-01 03:58:00,
2013-06-30 20:59:00,71.4,39.2,30.03,SSE,158,0.0,0.0,31,0.00,,,0.00,VWS V14.00,2013-07-01 03:59:00,
2013-06-30 21:00:00,71.4,39.2,30.03,SSE,158,0.0,0.0,31,0.00,,,0.00,VWS V14.00,2013-07-01 04:00:00,
2013-06-30 21:01:00,71.4,39.2,30.03,SSW,202,0.0,0.0,31,0.00,,,0.00,VWS V14.00,2013-07-01 04:01:00,
2013-06-30 21:02:00,71.2,39.1,30.03,SSW,202,0.0,0.0,31,0.00,,,0.00,VWS V14.00,2013-07-01 04:02:00,
2013-06-30 21:03:00,71.2,39.1,30.03,SSW,202,0.0,0.0,31,0.00,,,0.00,VWS V14.00,2013-07-01 04:03:00,
2013-06-30 21:04:00,71.2,39.1,30.03,SSW,202,0.0,0.0,31,0.00,,,0.00,VWS V14.00,2013-07-01 04:04:00,
2013-06-30 21:05:00,71.2,39.1,30.03,ESE,112,0.0,0.0,31,0.00,,,0.00,VWS V14.00,2013-07-01 04:05:00,
2013-06-30 21:06:00,71.1,39.7,30.03,ESE,112,0.0,0.0,32,0.00,,,0.00,VWS V14.00,2013-07-01 04:06:00,
2013-06-30 21:07:00,71.1,39.7,30.03,ESE,112,0.0,0.0,32,0.00,,,0.00,VWS V14.00,2013-07-01 04:07:00,
2013-06-30 21:08:00,71.1,39.7,30.03,SE,135,0.0,0.0,32,0.00,,,0.00,VWS V14.00,2013-07-01 04:08:00,
2013-06-30 21:09:00,71.1,39.7,30.03,SE,135,0.0,0.0,32,0.00,,,0.00,VWS V14.00,2013-07-01 04:09:00,
2013-06-30 21:10:00,71.1,39.7,30.03,SE,135,0.0,0.0,32,0.00,,,0.00,VWS V14.00,2013-07-01 04:10:00,
2013-06-30 21:11:00,71.1,39.7,30.06,SE,135,0.0,0.0,32,0.00,,,0.00,VWS V14.00,2013-07-01 04:11:00,
2013-06-30 21:12:00,71.1,39.7,30.06,South,180,0.0,0.0,32,0.00,,,0.00,VWS V14.00,2013-07-01 04:12:00,
2013-06-30 21:13:00,70.7,39.4,30.06,South,180,0.0,0.0,32,0.00,,,0.00,VWS V14.00,2013-07-01 04:13:00,
2013-06-30 21:14:00,70.5,39.3,30.06,South,180,0.0,0.0,32,0.00,,,0.00,VWS V14.00,2013-07-01 04:14:00,
2013-06-30 21:15:00,70.5,39.3,30.06,South,180,0.0,0.0,32,0.00,,,0.00,VWS V14.00,2013-07-01 04:15:00,
2013-06-30 21:16:00,70.3,39.1,30.06,South,180,0.0,0.0,32,0.00,,,0.00,VWS V14.00,2013-07-01 04:16:00,
2013-06-30 21:17:00,70.3,39.1,30.06,South,180,0.0,0.0,32,0.00,,,0.00,VWS V14.00,2013-07-01 04:17:00,
2013-06-30 21:18:00,70.3,39.1,30.06,South,180,0.0,0.0,32,0.00,,,0.00,VWS V14.00,2013-07-01 04:18:00,
2013-06-30 21:19:00,70.3,39.1,30.06,South,180,0.0,0.0,32,0.00,,,0.00,VWS V14.00,2013-07-01 04:19:00,
2013-06-30 21:20:00,70.3,39.1,30.06,ESE,112,0.0,0.0,32,0.00,,,0.00,VWS V14.00,2013-07-01 04:20:00,
2013-06-30 21:21:00,70.3,39.1,30.06,SE,135,0.0,0.0,32,0.00,,,0.00,VWS V14.00,2013-07-01 04:21:00,
2013-06-30 21:22:00,70.3,39.1,30.06,SE,135,0.0,0.0,32,0.00,,,0.00,VWS V14.00,2013-07-01 04:22:00,
2013-06-30 21:23:00,70.0,38.8,30.06,SE,135,0.0,0.0,32,0.00,,,0.00,VWS V14.00,2013-07-01 04:23:00,
2013-06-30 21:24:00,70.0,38.8,30.06,South,180,0.0,0.0,32,0.00,,,0.00,VWS V14.00,2013-07-01 04:24:00,
2013-06-30 21:25:00,70.0,38.8,30.06,South,180,0.0,0.0,32,0.00,,,0.00,VWS V14.00,2013-07-01 04:25:00,
2013-06-30 21:26:00,70.0,38.8,30.06,South,180,0.0,0.0,32,0.00,,,0.00,VWS V14.00,2013-07-01 04:26:00,
2013-06-30 21:27:00,70.0,38.8,30.06,South,180,0.0,0.0,32,0.00,,,0.00,VWS V14.00,2013-07-01 04:27:00,
2013-06-30 21:28:00,70.0,38.8,30.06,South,180,0.0,0.0,32,0.00,,,0.00,VWS V14.00,2013-07-01 04:28:00,
2013-06-30 21:29:00,69.8,38.6,30.06,South,180,0.0,0.0,32,0.00,,,0.00,VWS V14.00,2013-07-01 04:29:00,
2013-06-30 21:30:00,69.8,38.6,30.06,SE,135,0.0,0.0,32,0.00,,,0.00,VWS V14.00,2013-07-01 04:30:00,
2013-06-30 21:31:00,69.6,38.5,30.06,SE,135,0.0,0.0,32,0.00,,,0.00,VWS V14.00,2013-07-01 04:31:00,
2013-06-30 21:32:00,69.6,38.5,30.06,SE,135,0.0,0.0,32,0.00,,,0.00,VWS V14.00,2013-07-01 04:32:00,
2013-06-30 21:33:00,69.6,38.5,30.06,SSE,158,0.0,0.0,32,0.00,,,0.00,VWS V14.00,2013-07-01 04:33:00,
2013-06-30 21:34:00,69.6,38.5,30.06,SSE,158,0.0,0.0,32,0.00,,,0.00,VWS V14.00,2013-07-01 04:34:00,
2013-06-30 21:35:00,69.6,38.5,30.06,East,90,0.0,0.0,32,0.00,,,0.00,VWS V14.00,2013-07-01 04:35:00,
2013-06-30 21:36:00,69.6,38.5,30.06,SE,135,0.0,0.0,32,0.00,,,0.00,VWS V14.00,2013-07-01 04:36:00,
2013-06-30 21:37:00,69.6,38.5,30.06,SE,135,0.0,0.0,32,0.00,,,0.00,VWS V14.00,2013-07-01 04:37:00,
2013-06-30 21:38:00,69.6,38.5,30.06,SSE,158,0.0,0.0,32,0.00,,,0.00,VWS V14.00,2013-07-01 04:38:00,
2013-06-30 21:39:00,69.4,38.3,30.06,SSE,158,0.0,0.0,32,0.00,,,0.00,VWS V14.00,2013-07-01 04:39:00,
2013-06-30 21:40:00,69.4,38.3,30.06,SSE,158,0.0,0.0,32,0.00,,,0.00,VWS V14.00,2013-07-01 04:40:00,
2013-06-30 21:41:00,69.4,38.3,30.06,ESE,112,0.0,0.0,32,0.00,,,0.00,VWS V14.00,2013-07-01 04:41:00,
2013-06-30 21:42:00,69.4,38.3,30.06,ESE,112,0.0,0.0,32,0.00,,,0.00,VWS V14.00,2013-07-01 04:42:00,
2013-06-30 21:43:00,69.3,38.2,30.06,SE,135,0.0,0.0,32,0.00,,,0.00,VWS V14.00,2013-07-01 04:43:00,
2013-06-30 21:44:00,69.3,38.2,30.06,SE,135,0.0,0.0,32,0.00,,,0.00,VWS V14.00,2013-07-01 04:44:00,
2013-06-30 21:45:00,69.1,38.0,30.06,SSE,158,0.0,0.0,32,0.00,,,0.00,VWS V14.00,2013-07-01 04:45:00,
2013-06-30 21:46:00,69.1,38.0,30.06,ESE,112,0.0,0.0,32,0.00,,,0.00,VWS V14.00,2013-07-01 04:46:00,
2013-06-30 21:47:00,69.1,38.0,30.06,ESE,112,0.0,0.0,32,0.00,,,0.00,VWS V14.00,2013-07-01 04:47:00,
2013-06-30 21:48:00,69.1,38.0,30.06,East,90,0.0,0.0,32,0.00,,,0.00,VWS V14.00,2013-07-01 04:48:00,
2013-06-30 21:49:00,69.1,38.0,30.06,ESE,112,0.0,0.0,32,0.00,,,0.00,VWS V14.00,2013-07-01 04:49:00,
2013-06-30 21:50:00,69.1,38.0,30.06,East,90,0.0,0.0,32,0.00,,,0.00,VWS V14.00,2013-07-01 04:50:00,
2013-06-30 21:51:00,69.1,38.0,30.06,SSE,158,0.0,0.0,32,0.00,,,0.00,VWS V14.00,2013-07-01 04:51:00,
2013-06-30 21:52:00,69.1,38.0,30.06,SSE,158,0.0,0.0,32,0.00,,,0.00,VWS V14.00,2013-07-01 04:52:00,
2013-06-30 21:53:00,69.1,38.0,30.06,SSE,158,0.0,0.0,32,0.00,,,0.00,VWS V14.00,2013-07-01 04:53:00,
2013-06-30 21:54:00,69.1,38.0,30.06,SSE,158,0.0,0.0,32,0.00,,,0.00,VWS V14.00,2013-07-01 04:54:00,
2013-06-30 21:55:00,69.1,38.0,30.06,SSE,158,0.0,0.0,32,0.00,,,0.00,VWS V14.00,2013-07-01 04:55:00,
2013-06-30 21:56:00,68.9,37.8,30.06,SE,135,0.0,0.0,32,0.00,,,0.00,VWS V14.00,2013-07-01 04:56:00,
2013-06-30 21:57:00,68.9,37.8,30.06,SE,135,0.0,0.0,32,0.00,,,0.00,VWS V14.00,2013-07-01 04:57:00,
2013-06-30 21:58:00,68.7,37.7,30.06,SE,135,0.0,0.0,32,0.00,,,0.00,VWS V14.00,2013-07-01 04:58:00,
2013-06-30 21:59:00,68.7,37.7,30.06,SE,135,0.0,0.0,32,0.00,,,0.00,VWS V14.00,2013-07-01 04:59:00,
2013-06-30 22:00:00,68.7,37.7,30.06,SSE,158,0.0,0.0,32,0.00,,,0.00,VWS V14.00,2013-07-01 05:00:00,
2013-06-30 22:01:00,68.7,37.7,30.06,SSE,158,0.0,0.0,32,0.00,,,0.00,VWS V14.00,2013-07-01 05:01:00,
2013-06-30 22:02:00,68.7,37.7,30.06,SSE,158,0.0,0.0,32,0.00,,,0.00,VWS V14.00,2013-07-01 05:02:00,
2013-06-30 22:03:00,68.7,37.7,30.06,South,180,0.0,0.0,32,0.00,,,0.00,VWS V14.00,2013-07-01 05:03:00,
2013-06-30 22:04:00,68.7,37.7,30.06,SSE,158,0.0,0.0,32,0.00,,,0.00,VWS V14.00,2013-07-01 05:04:00,
2013-06-30 22:05:00,68.5,37.5,30.06,South,180,0.0,0.0,32,0.00,,,0.00,VWS V14.00,2013-07-01 05:05:00,
2013-06-30 22:06:00,68.5,37.5,30.06,SSE,158,0.0,0.0,32,0.00,,,0.00,VWS V14.00,2013-07-01 05:06:00,
2013-06-30 22:07:00,68.5,37.5,30.06,South,180,0.0,0.0,32,0.00,,,0.00,VWS V14.00,2013-07-01 05:07:00,
2013-06-30 22:08:00,68.5,37.5,30.06,ESE,112,0.0,0.0,32,0.00,,,0.00,VWS V14.00,2013-07-01 05:08:00,
2013-06-30 22:09:00,68.5,37.5,30.06,SSE,158,0.0,0.0,32,0.00,,,0.00,VWS V14.00,2013-07-01 05:09:00,
2013-06-30 22:10:00,68.5,37.5,30.06,South,180,0.0,0.0,32,0.00,,,0.00,VWS V14.00,2013-07-01 05:10:00,
2013-06-30 22:11:00,68.5,37.5,30.06,South,180,0.0,0.0,32,0.00,,,0.00,VWS V14.00,2013-07-01 05:11:00,
2013-06-30 22:12:00,68.5,37.5,30.06,South,180,0.0,0.0,32,0.00,,,0.00,VWS V14.00,2013-07-01 05:12:00,
2013-06-30 22:14:00,68.5,37.5,30.06,South,180,0.0,0.0,32,0.00,,,0.00,VWS V14.00,2013-07-01 05:14:00,
2013-06-30 22:15:00,68.5,37.5,30.06,ESE,112,0.0,0.0,32,0.00,,,0.00,VWS V14.00,2013-07-01 05:15:00,
2013-06-30 22:16:00,68.5,37.5,30.06,ESE,112,0.0,0.0,32,0.00,,,0.00,VWS V14.00,2013-07-01 05:16:00,
2013-06-30 22:17:00,68.5,37.5,30.06,ESE,112,0.0,0.0,32,0.00,,,0.00,VWS V14.00,2013-07-01 05:17:00,
2013-06-30 22:18:00,68.5,37.5,30.06,SSE,158,0.0,0.0,32,0.00,,,0.00,VWS V14.00,2013-07-01 05:18:00,
2013-06-30 22:19:00,68.4,37.4,30.06,SSE,158,0.0,0.0,32,0.00,,,0.00,VWS V14.00,2013-07-01 05:19:00,
2013-06-30 22:20:00,68.4,37.4,30.06,SSE,158,0.0,0.0,32,0.00,,,0.00,VWS V14.00,2013-07-01 05:20:00,
2013-06-30 22:21:00,68.2,37.2,30.06,South,180,0.0,0.0,32,0.00,,,0.00,VWS V14.00,2013-07-01 05:21:00,
2013-06-30 22:22:00,68.2,37.2,30.06,ESE,112,0.0,0.0,32,0.00,,,0.00,VWS V14.00,2013-07-01 05:22:00,
2013-06-30 22:23:00,68.2,37.2,30.06,ESE,112,0.0,0.0,32,0.00,,,0.00,VWS V14.00,2013-07-01 05:23:00,
2013-06-30 22:24:00,68.2,37.2,30.06,SSE,158,0.0,0.0,32,0.00,,,0.00,VWS V14.00,2013-07-01 05:24:00,
2013-06-30 22:25:00,68.2,37.2,30.06,ESE,112,0.0,0.0,32,0.00,,,0.00,VWS V14.00,2013-07-01 05:25:00,
2013-06-30 22:26:00,68.2,37.2,30.06,ESE,112,0.0,0.0,32,0.00,,,0.00,VWS V14.00,2013-07-01 05:26:00,
2013-06-30 22:27:00,68.2,37.2,30.06,South,180,0.0,0.0,32,0.00,,,0.00,VWS V14.00,2013-07-01 05:27:00,
2013-06-30 22:28:00,68.2,37.2,30.06,SSE,158,0.0,0.0,32,0.00,,,0.00,VWS V14.00,2013-07-01 05:28:00,
2013-06-30 22:29:00,68.2,37.2,30.06,SE,135,0.0,0.0,32,0.00,,,0.00,VWS V14.00,2013-07-01 05:29:00,
2013-06-30 22:30:00,68.0,37.8,30.06,South,180,0.0,0.0,33,0.00,,,0.00,VWS V14.00,2013-07-01 05:30:00,
2013-06-30 22:31:00,68.0,37.8,30.06,South,180,0.0,0.0,33,0.00,,,0.00,VWS V14.00,2013-07-01 05:31:00,
2013-06-30 22:32:00,68.0,37.8,30.06,South,180,0.0,0.0,33,0.00,,,0.00,VWS V14.00,2013-07-01 05:32:00,
2013-06-30 22:33:00,68.0,37.8,30.06,SE,135,0.0,0.0,33,0.00,,,0.00,VWS V14.00,2013-07-01 05:33:00,
2013-06-30 22:34:00,68.0,37.8,30.06,SSE,158,0.0,0.0,33,0.00,,,0.00,VWS V14.00,2013-07-01 05:34:00,
2013-06-30 22:35:00,68.0,37.8,30.06,SSE,158,0.0,0.0,33,0.00,,,0.00,VWS V14.00,2013-07-01 05:35:00,
2013-06-30 22:36:00,68.0,37.8,30.06,South,180,0.0,0.0,33,0.00,,,0.00,VWS V14.00,2013-07-01 05:36:00,
2013-06-30 22:37:00,68.0,37.8,30.06,SE,135,0.0,0.0,33,0.00,,,0.00,VWS V14.00,2013-07-01 05:37:00,
2013-06-30 22:38:00,67.8,37.7,30.06,SE,135,0.0,0.0,33,0.00,,,0.00,VWS V14.00,2013-07-01 05:38:00,
2013-06-30 22:39:00,67.8,37.7,30.06,SSE,158,0.0,0.0,33,0.00,,,0.00,VWS V14.00,2013-07-01 05:39:00,
2013-06-30 22:40:00,67.8,37.7,30.06,ESE,112,0.0,0.0,33,0.00,,,0.00,VWS V14.00,2013-07-01 05:40:00,
2013-06-30 22:41:00,67.8,37.7,30.06,South,180,0.0,0.0,33,0.00,,,0.00,VWS V14.00,2013-07-01 05:41:00,
2013-06-30 22:42:00,67.8,37.7,30.06,SE,135,0.0,0.0,33,0.00,,,0.00,VWS V14.00,2013-07-01 05:42:00,
2013-06-30 22:43:00,67.8,37.7,30.06,SSE,158,0.0,0.0,33,0.00,,,0.00,VWS V14.00,2013-07-01 05:43:00,
2013-06-30 22:44:00,67.8,37.7,30.06,SE,135,0.0,0.0,33,0.00,,,0.00,VWS V14.00,2013-07-01 05:44:00,
2013-06-30 22:45:00,67.6,37.5,30.06,SSE,158,0.0,0.0,33,0.00,,,0.00,VWS V14.00,2013-07-01 05:45:00,
2013-06-30 22:46:00,67.6,37.5,30.06,SE,135,0.0,0.0,33,0.00,,,0.00,VWS V14.00,2013-07-01 05:46:00,
2013-06-30 22:47:00,67.6,37.5,30.06,SSE,158,0.0,0.0,33,0.00,,,0.00,VWS V14.00,2013-07-01 05:47:00,
2013-06-30 22:48:00,67.6,37.5,30.06,SE,135,0.0,0.0,33,0.00,,,0.00,VWS V14.00,2013-07-01 05:48:00,
2013-06-30 22:49:00,67.6,37.5,30.06,South,180,0.0,0.0,33,0.00,,,0.00,VWS V14.00,2013-07-01 05:49:00,
2013-06-30 22:50:00,67.6,37.5,30.06,East,90,0.0,0.0,33,0.00,,,0.00,VWS V14.00,2013-07-01 05:50:00,
2013-06-30 22:51:00,67.6,37.5,30.06,East,90,0.0,0.0,33,0.00,,,0.00,VWS V14.00,2013-07-01 05:51:00,
2013-06-30 22:52:00,67.6,37.5,30.06,ESE,112,0.0,0.0,33,0.00,,,0.00,VWS V14.00,2013-07-01 05:52:00,
2013-06-30 22:53:00,67.8,37.7,30.06,ESE,112,0.0,0.0,33,0.00,,,0.00,VWS V14.00,2013-07-01 05:53:00,
2013-06-30 22:54:00,67.8,37.7,30.06,SE,135,0.0,0.0,33,0.00,,,0.00,VWS V14.00,2013-07-01 05:54:00,
2013-06-30 22:55:00,67.8,37.7,30.06,SE,135,0.0,0.0,33,0.00,,,0.00,VWS V14.00,2013-07-01 05:55:00,
2013-06-30 22:56:00,67.8,37.7,30.06,East,90,0.0,0.0,33,0.00,,,0.00,VWS V14.00,2013-07-01 05:56:00,
2013-06-30 22:57:00,67.8,37.7,30.06,East,90,0.0,0.0,33,0.00,,,0.00,VWS V14.00,2013-07-01 05:57:00,
2013-06-30 22:58:00,67.8,37.7,30.06,East,90,0.0,0.0,33,0.00,,,0.00,VWS V14.00,2013-07-01 05:58:00,
2013-06-30 22:59:00,67.8,37.7,30.06,ESE,112,0.0,0.0,33,0.00,,,0.00,VWS V14.00,2013-07-01 05:59:00,
2013-06-30 23:00:00,67.8,37.7,30.06,ESE,112,0.0,0.0,33,0.00,,,0.00,VWS V14.00,2013-07-01 06:00:00,
2013-06-30 23:01:00,67.8,37.7,30.06,SE,135,0.0,0.0,33,0.00,,,0.00,VWS V14.00,2013-07-01 06:01:00,
2013-06-30 23:02:00,67.8,37.7,30.06,ESE,112,0.0,0.0,33,0.00,,,0.00,VWS V14.00,2013-07-01 06:02:00,
2013-06-30 23:03:00,67.6,37.5,30.06,East,90,0.0,0.0,33,0.00,,,0.00,VWS V14.00,2013-07-01 06:03:00,
2013-06-30 23:04:00,67.6,37.5,30.06,ESE,112,0.0,0.0,33,0.00,,,0.00,VWS V14.00,2013-07-01 06:04:00,
2013-06-30 23:05:00,67.5,37.4,30.06,ESE,112,0.0,0.0,33,0.00,,,0.00,VWS V14.00,2013-07-01 06:05:00,
2013-06-30 23:06:00,67.5,37.4,30.06,SE,135,0.0,0.0,33,0.00,,,0.00,VWS V14.00,2013-07-01 06:06:00,
2013-06-30 23:07:00,67.5,37.4,30.06,ESE,112,0.0,0.0,33,0.00,,,0.00,VWS V14.00,2013-07-01 06:07:00,
2013-06-30 23:08:00,67.5,37.4,30.06,ESE,112,0.0,0.0,33,0.00,,,0.00,VWS V14.00,2013-07-01 06:08:00,
2013-06-30 23:10:00,67.5,37.4,30.06,SE,135,0.0,0.0,33,0.00,,,0.00,VWS V14.00,2013-07-01 06:10:00,
2013-06-30 23:11:00,67.5,37.4,30.06,ESE,112,0.0,0.0,33,0.00,,,0.00,VWS V14.00,2013-07-01 06:11:00,
2013-06-30 23:12:00,67.5,37.4,30.06,ESE,112,0.0,0.0,33,0.00,,,0.00,VWS V14.00,2013-07-01 06:12:00,
2013-06-30 23:13:00,67.5,37.4,30.06,ESE,112,0.0,0.0,33,0.00,,,0.00,VWS V14.00,2013-07-01 06:13:00,
2013-06-30 23:14:00,67.5,37.4,30.06,SE,135,0.0,0.0,33,0.00,,,0.00,VWS V14.00,2013-07-01 06:14:00,
2013-06-30 23:15:00,67.5,37.4,30.06,ESE,112,0.0,0.0,33,0.00,,,0.00,VWS V14.00,2013-07-01 06:15:00,
2013-06-30 23:16:00,67.5,37.4,30.06,ESE,112,0.0,0.0,33,0.00,,,0.00,VWS V14.00,2013-07-01 06:16:00,
2013-06-30 23:17:00,67.5,37.4,30.06,ESE,112,0.0,0.0,33,0.00,,,0.00,VWS V14.00,2013-07-01 06:17:00,
2013-06-30 23:18:00,67.5,37.4,30.06,ESE,112,0.0,0.0,33,0.00,,,0.00,VWS V14.00,2013-07-01 06:18:00,
2013-06-30 23:19:00,67.5,37.4,30.06,SE,135,0.0,0.0,33,0.00,,,0.00,VWS V14.00,2013-07-01 06:19:00,
2013-06-30 23:20:00,67.5,37.4,30.06,SE,135,0.0,0.0,33,0.00,,,0.00,VWS V14.00,2013-07-01 06:20:00,
2013-06-30 23:21:00,67.6,37.5,30.06,ESE,112,0.0,0.0,33,0.00,,,0.00,VWS V14.00,2013-07-01 06:21:00,
2013-06-30 23:22:00,67.5,37.4,30.06,ESE,112,0.0,0.0,33,0.00,,,0.00,VWS V14.00,2013-07-01 06:22:00,
2013-06-30 23:23:00,67.5,37.4,30.06,SSW,202,0.0,0.0,33,0.00,,,0.00,VWS V14.00,2013-07-01 06:23:00,
2013-06-30 23:24:00,67.5,37.4,30.06,SSW,202,0.0,0.0,33,0.00,,,0.00,VWS V14.00,2013-07-01 06:24:00,
2013-06-30 23:25:00,67.5,37.4,30.06,SSW,202,0.0,0.0,33,0.00,,,0.00,VWS V14.00,2013-07-01 06:25:00,
2013-06-30 23:26:00,67.5,37.4,30.06,SSW,202,0.0,0.0,33,0.00,,,0.00,VWS V14.00,2013-07-01 06:26:00,
2013-06-30 23:27:00,67.5,37.4,30.06,SE,135,0.0,0.0,33,0.00,,,0.00,VWS V14.00,2013-07-01 06:27:00,
2013-06-30 23:28:00,67.5,37.4,30.06,SE,135,0.0,0.0,33,0.00,,,0.00,VWS V14.00,2013-07-01 06:28:00,
2013-06-30 23:29:00,67.5,37.4,30.06,SE,135,0.0,0.0,33,0.00,,,0.00,VWS V14.00,2013-07-01 06:29:00,
2013-06-30 23:30:00,67.5,37.4,30.06,SE,135,0.0,0.0,33,0.00,,,0.00,VWS V14.00,2013-07-01 06:30:00,
2013-06-30 23:31:00,67.5,37.4,30.06,ESE,112,0.0,0.0,33,0.00,,,0.00,VWS V14.00,2013-07-01 06:31:00,
2013-06-30 23:32:00,67.5,37.4,30.06,SE,135,0.0,0.0,33,0.00,,,0.00,VWS V14.00,2013-07-01 06:32:00,
2013-06-30 23:33:00,67.5,37.4,30.06,ESE,112,0.0,0.0,33,0.00,,,0.00,VWS V14.00,2013-07-01 06:33:00,
2013-06-30 23:34:00,67.5,37.4,30.06,SE,135,0.0,0.0,33,0.00,,,0.00,VWS V14.00,2013-07-01 06:34:00,
2013-06-30 23:35:00,67.5,37.4,30.06,SE,135,0.0,0.0,33,0.00,,,0.00,VWS V14.00,2013-07-01 06:35:00,
2013-06-30 23:36:00,67.5,37.4,30.06,ESE,112,0.0,0.0,33,0.00,,,0.00,VWS V14.00,2013-07-01 06:36:00,
2013-06-30 23:37:00,67.3,37.2,30.06,East,90,0.0,0.0,33,0.00,,,0.00,VWS V14.00,2013-07-01 06:37:00,
2013-06-30 23:38:00,67.3,37.2,30.06,SE,135,0.0,0.0,33,0.00,,,0.00,VWS V14.00,2013-07-01 06:38:00,
2013-06-30 23:39:00,67.3,37.2,30.06,South,180,0.0,0.0,33,0.00,,,0.00,VWS V14.00,2013-07-01 06:39:00,
2013-06-30 23:40:00,67.3,37.2,30.06,SSW,202,0.0,0.0,33,0.00,,,0.00,VWS V14.00,2013-07-01 06:40:00,
2013-06-30 23:41:00,67.3,37.2,30.06,East,90,0.0,0.0,33,0.00,,,0.00,VWS V14.00,2013-07-01 06:41:00,